Observation data for Umbarger on 02/22/2019      Previous  Date  Next       Current Mesonet Observations  Soil Data  Daily Summary Page  Observations in Plain Language
KUM1 220600Z 12019KT 02/M04 A2988 RMK A01 T00161043  RH  065%=      5-min Rain = 0
KUM1 220601Z 12021KT 02/M04 A2988 RMK A01 T00161043  RH  065%=      5-min Rain = 0
KUM1 220602Z 12019KT 02/M04 A2988 RMK A01 T00161043  RH  065%=      5-min Rain = 0
KUM1 220603Z 13019KT 02/M04 A2988 RMK A01 T00161043  RH  065%=      5-min Rain = 0
KUM1 220604Z 12018KT 02/M04 A2988 RMK A01 T00161043  RH  065%=      5-min Rain = 0
KUM1 220605Z 12018KT 02/M04 A2988 RMK A01 T00161042  RH  065%=      5-min Rain = 0
KUM1 220606Z 12019KT 02/M04 A2988 RMK A01 T00161042  RH  065%=      5-min Rain = 0
KUM1 220607Z 12019KT 02/M04 A2988 RMK A01 T00161042  RH  065%=      5-min Rain = 0
KUM1 220608Z 12018KT 02/M04 A2988 RMK A01 T00171042  RH  065%=      5-min Rain = 0
KUM1 220609Z 12019KT 02/M04 A2988 RMK A01 T00171042  RH  065%=      5-min Rain = 0
KUM1 220610Z 12019KT 02/M04 A2988 RMK A01 T00171042  RH  065%=      5-min Rain = 0
KUM1 220611Z 12019KT 02/M04 A2988 RMK A01 T00171041  RH  065%=      5-min Rain = 0
KUM1 220612Z 12018KT 02/M04 A2988 RMK A01 T00171041  RH  065%=      5-min Rain = 0
KUM1 220613Z 12019KT 02/M04 A2988 RMK A01 T00171040  RH  065%=      5-min Rain = 0
KUM1 220614Z 12019KT 02/M04 A2988 RMK A01 T00171040  RH  066%=      5-min Rain = 0
KUM1 220615Z 12020KT 02/M04 A2988 RMK A01 T00171040  RH  066%=      5-min Rain = 0
KUM1 220616Z 12021KT 02/M04 A2988 RMK A01 T00171040  RH  066%=      5-min Rain = 0
KUM1 220617Z 13019KT 02/M04 A2988 RMK A01 T00181039  RH  066%=      5-min Rain = 0
KUM1 220618Z 13019KT 02/M04 A2988 RMK A01 T00181039  RH  066%=      5-min Rain = 0
KUM1 220619Z 13017KT 02/M04 A2988 RMK A01 T00181039  RH  066%=      5-min Rain = 0
KUM1 220620Z 13018KT 02/M04 A2988 RMK A01 T00181039  RH  066%=      5-min Rain = 0
KUM1 220621Z 12018KT 02/M04 A2988 RMK A01 T00181039  RH  066%=      5-min Rain = 0
KUM1 220622Z 13018KT 02/M04 A2988 RMK A01 T00181039  RH  066%=      5-min Rain = 0
KUM1 220623Z 13017KT 02/M04 A2988 RMK A01 T00181039  RH  066%=      5-min Rain = 0
KUM1 220624Z 13016KT 02/M04 A2988 RMK A01 T00181039  RH  066%=      5-min Rain = 0
KUM1 220625Z 13015KT 02/M04 A2988 RMK A01 T00171039  RH  066%=      5-min Rain = 0
KUM1 220626Z 13016G21KT 02/M04 A2988 RMK A01 T00181038  RH  066%=      5-min Rain = 0
KUM1 220627Z 13017KT 02/M04 A2988 RMK A01 T00171038  RH  066%=      5-min Rain = 0
KUM1 220628Z 13016KT 02/M04 A2988 RMK A01 T00181038  RH  067%=      5-min Rain = 0
KUM1 220629Z 13015KT 02/M04 A2988 RMK A01 T00181038  RH  067%=      5-min Rain = 0
KUM1 220630Z 12014KT 02/M04 A2989 RMK A01 T00181038  RH  067%=      5-min Rain = 0
KUM1 220631Z 13013KT 02/M04 A2989 RMK A01 T00171038  RH  067%=      5-min Rain = 0
KUM1 220632Z 13012KT 02/M04 A2989 RMK A01 T00171038  RH  067%=      5-min Rain = 0
KUM1 220633Z 12014KT 02/M04 A2989 RMK A01 T00171037  RH  067%=      5-min Rain = 0
KUM1 220634Z 12013KT 02/M04 A2989 RMK A01 T00171037  RH  067%=      5-min Rain = 0
KUM1 220635Z 13011KT 02/M04 A299 RMK A01 T00171037  RH  067%=      5-min Rain = 0
KUM1 220636Z 13011KT 02/M04 A299 RMK A01 T00171037  RH  067%=      5-min Rain = 0
KUM1 220637Z 12010KT 02/M04 A299 RMK A01 T00171037  RH  067%=      5-min Rain = 0
KUM1 220638Z 12010KT 02/M04 A299 RMK A01 T00171037  RH  067%=      5-min Rain = 0
KUM1 220639Z 12010KT 02/M04 A299 RMK A01 T00171037  RH  067%=      5-min Rain = 0
KUM1 220640Z 13007KT 02/M04 A299 RMK A01 T00171037  RH  067%=      5-min Rain = 0
KUM1 220641Z 12005KT 02/M04 A299 RMK A01 T00161038  RH  067%=      5-min Rain = 0
KUM1 220642Z 12009KT 02/M04 A299 RMK A01 T00161038  RH  068%=      5-min Rain = 0
KUM1 220643Z 12006KT 02/M04 A299 RMK A01 T00161037  RH  068%=      5-min Rain = 0
KUM1 220644Z 11006KT 02/M04 A299 RMK A01 T00151038  RH  068%=      5-min Rain = 0
KUM1 220645Z 12008KT 01/M04 A299 RMK A01 T00141038  RH  068%=      5-min Rain = 0
KUM1 220646Z 11004KT 02/M04 A299 RMK A01 T00151037  RH  068%=      5-min Rain = 0
KUM1 220647Z 11005KT 02/M04 A299 RMK A01 T00151037  RH  068%=      5-min Rain = 0
KUM1 220648Z 12004KT 01/M04 A299 RMK A01 T00141037  RH  069%=      5-min Rain = 0
KUM1 220649Z 12004KT 01/M04 A299 RMK A01 T00141037  RH  069%=      5-min Rain = 0
KUM1 220650Z 12004KT 01/M04 A299 RMK A01 T00141037  RH  069%=      5-min Rain = 0
KUM1 220651Z 12005KT 01/M04 A299 RMK A01 T00141037  RH  069%=      5-min Rain = 0
KUM1 220652Z 12006KT 01/M04 A299 RMK A01 T00131037  RH  069%=      5-min Rain = 0
KUM1 220653Z 12007KT 01/M04 A299 RMK A01 T00131037  RH  069%=      5-min Rain = 0
KUM1 220654Z 12008KT 01/M04 A299 RMK A01 T00131037  RH  069%=      5-min Rain = 0
KUM1 220655Z 12007KT 01/M04 A299 RMK A01 T00131037  RH  069%=      5-min Rain = 0
KUM1 220656Z 12008KT 01/M04 A299 RMK A01 T00131037  RH  069%=      5-min Rain = 0
KUM1 220657Z 12008KT 01/M04 A299 RMK A01 T00121037  RH  069%=      5-min Rain = 0
KUM1 220658Z 12008KT 01/M04 A299 RMK A01 T00131037  RH  069%=      5-min Rain = 0
KUM1 220659Z 12009KT 01/M04 A299 RMK A01 T00131037  RH  070%=      5-min Rain = 0
KUM1 220700Z 12009KT 01/M04 A299 RMK A01 T00131037  RH  070%=      5-min Rain = 0
KUM1 220701Z 12008KT 01/M04 A299 RMK A01 T00121037  RH  069%=      5-min Rain = 0
KUM1 220702Z 13010KT 01/M04 A299 RMK A01 T00121038  RH  069%=      5-min Rain = 0
KUM1 220703Z 13011KT 01/M04 A299 RMK A01 T00121038  RH  070%=      5-min Rain = 0
KUM1 220704Z 13011KT 01/M04 A2991 RMK A01 T00121038  RH  070%=      5-min Rain = 0
KUM1 220705Z 13013KT 01/M04 A2991 RMK A01 T00121038  RH  070%=      5-min Rain = 0
KUM1 220706Z 13013KT 01/M04 A2991 RMK A01 T00121037  RH  070%=      5-min Rain = 0
KUM1 220707Z 14012KT 01/M04 A2991 RMK A01 T00131037  RH  069%=      5-min Rain = 0
KUM1 220708Z 14014KT 01/M04 A2991 RMK A01 T00121037  RH  069%=      5-min Rain = 0
KUM1 220709Z 13013KT 01/M04 A2991 RMK A01 T00121037  RH  069%=      5-min Rain = 0
KUM1 220710Z 13014KT 01/M04 A299 RMK A01 T00131037  RH  069%=      5-min Rain = 0
KUM1 220711Z 13015KT 01/M04 A299 RMK A01 T00121037  RH  069%=      5-min Rain = 0
KUM1 220712Z 13015KT 01/M04 A299 RMK A01 T00131037  RH  070%=      5-min Rain = 0
KUM1 220713Z 13014KT 01/M04 A299 RMK A01 T00131037  RH  070%=      5-min Rain = 0
KUM1 220714Z 13016KT 01/M04 A299 RMK A01 T00131037  RH  070%=      5-min Rain = 0
KUM1 220715Z 13015KT 01/M04 A299 RMK A01 T00121037  RH  070%=      5-min Rain = 0
KUM1 220716Z 13016KT 01/M04 A299 RMK A01 T00121037  RH  070%=      5-min Rain = 0
KUM1 220717Z 13016KT 01/M04 A299 RMK A01 T00121037  RH  070%=      5-min Rain = 0
KUM1 220718Z 13015KT 01/M04 A299 RMK A01 T00121037  RH  070%=      5-min Rain = 0
KUM1 220719Z 13015KT 01/M04 A2989 RMK A01 T00121037  RH  070%=      5-min Rain = 0
KUM1 220720Z 13016KT 01/M04 A299 RMK A01 T00121037  RH  070%=      5-min Rain = 0
KUM1 220721Z 13016KT 01/M04 A299 RMK A01 T00111038  RH  070%=      5-min Rain = 0
KUM1 220722Z 13015KT 01/M04 A299 RMK A01 T00111037  RH  070%=      5-min Rain = 0
KUM1 220723Z 14014KT 01/M04 A2991 RMK A01 T00111037  RH  070%=      5-min Rain = 0
KUM1 220724Z 14014KT 01/M04 A2991 RMK A01 T00101038  RH  070%=      5-min Rain = 0
KUM1 220725Z 14014KT 01/M04 A2991 RMK A01 T00101037  RH  071%=      5-min Rain = 0
KUM1 220726Z 14013KT 01/M04 A2991 RMK A01 T00101037  RH  071%=      5-min Rain = 0
KUM1 220727Z 14012KT 01/M04 A2991 RMK A01 T00101037  RH  071%=      5-min Rain = 0
KUM1 220728Z 14013KT 01/M04 A2991 RMK A01 T00101037  RH  071%=      5-min Rain = 0
KUM1 220729Z 13012KT 01/M04 A2991 RMK A01 T00101037  RH  071%=      5-min Rain = 0
KUM1 220730Z 13011KT 01/M04 A2991 RMK A01 T00101037  RH  071%=      5-min Rain = 0
KUM1 220731Z 13010KT 01/M04 A2991 RMK A01 T00101037  RH  071%=      5-min Rain = 0
KUM1 220732Z 13011KT 01/M04 A2991 RMK A01 T00101038  RH  071%=      5-min Rain = 0
KUM1 220733Z 13011KT 01/M04 A2991 RMK A01 T00091038  RH  071%=      5-min Rain = 0
KUM1 220734Z 12012KT 01/M04 A299 RMK A01 T00091038  RH  071%=      5-min Rain = 0
KUM1 220735Z 13012KT 01/M04 A299 RMK A01 T00091038  RH  071%=      5-min Rain = 0
KUM1 220736Z 12011KT 01/M04 A299 RMK A01 T00091038  RH  071%=      5-min Rain = 0
KUM1 220737Z 12011KT 01/M04 A299 RMK A01 T00091038  RH  071%=      5-min Rain = 0
KUM1 220738Z 12012KT 01/M04 A299 RMK A01 T00091038  RH  071%=      5-min Rain = 0
KUM1 220739Z 12010KT 01/M04 A299 RMK A01 T00091038  RH  071%=      5-min Rain = 0
KUM1 220740Z 12011KT 01/M04 A299 RMK A01 T00091038  RH  071%=      5-min Rain = 0
KUM1 220741Z 12011KT 01/M04 A299 RMK A01 T00091038  RH  071%=      5-min Rain = 0
KUM1 220742Z 12011KT 01/M04 A299 RMK A01 T00081038  RH  071%=      5-min Rain = 0
KUM1 220743Z 12010KT 01/M04 A299 RMK A01 T00081039  RH  071%=      5-min Rain = 0
KUM1 220744Z 12011KT 01/M04 A299 RMK A01 T00071040  RH  071%=      5-min Rain = 0
KUM1 220745Z 12011KT 01/M04 A299 RMK A01 T00071040  RH  071%=      5-min Rain = 0
KUM1 220746Z 12011KT 01/M04 A299 RMK A01 T00071040  RH  071%=      5-min Rain = 0
KUM1 220747Z 12011KT 01/M04 A299 RMK A01 T00061040  RH  071%=      5-min Rain = 0
KUM1 220748Z 11011KT 01/M04 A2989 RMK A01 T00061040  RH  072%=      5-min Rain = 0
KUM1 220749Z 12012KT 01/M04 A2989 RMK A01 T00061039  RH  072%=      5-min Rain = 0
KUM1 220750Z 12012KT 01/M04 A2989 RMK A01 T00051039  RH  072%=      5-min Rain = 0
KUM1 220751Z 12012KT 01/M04 A299 RMK A01 T00051039  RH  072%=      5-min Rain = 0
KUM1 220752Z 12012KT 01/M04 A299 RMK A01 T00051040  RH  072%=      5-min Rain = 0
KUM1 220753Z 12010KT 00/M04 A299 RMK A01 T00041040  RH  072%=      5-min Rain = 0
KUM1 220754Z 12009KT 00/M04 A299 RMK A01 T00041041  RH  072%=      5-min Rain = 0
KUM1 220755Z 12010KT 00/M04 A2991 RMK A01 T00031041  RH  072%=      5-min Rain = 0
KUM1 220756Z 13010KT 00/M04 A2991 RMK A01 T00031041  RH  072%=      5-min Rain = 0
KUM1 220757Z 13009KT 00/M04 A2991 RMK A01 T00021041  RH  072%=      5-min Rain = 0
KUM1 220758Z 12008KT 00/M04 A2991 RMK A01 T00021041  RH  073%=      5-min Rain = 0
KUM1 220759Z 13007KT 00/M04 A2991 RMK A01 T00021041  RH  073%=      5-min Rain = 0
KUM1 220800Z 12008KT 00/M04 A2991 RMK A01 T00021041  RH  073%=      5-min Rain = 0
KUM1 220801Z 13008KT 00/M04 A2991 RMK A01 T00021041  RH  073%=      5-min Rain = 0
KUM1 220802Z 13007KT 00/M04 A2992 RMK A01 T00011041  RH  073%=      5-min Rain = 0
KUM1 220803Z 13008KT 00/M04 A2991 RMK A01 T00011041  RH  073%=      5-min Rain = 0
KUM1 220804Z 12007KT 00/M04 A2991 RMK A01 T00021040  RH  073%=      5-min Rain = 0
KUM1 220805Z 12007KT 00/M04 A2991 RMK A01 T00011040  RH  074%=      5-min Rain = 0
KUM1 220806Z 12007KT 00/M04 A2991 RMK A01 T00021040  RH  074%=      5-min Rain = 0
KUM1 220807Z 12008KT 00/M04 A2991 RMK A01 T00021040  RH  074%=      5-min Rain = 0
KUM1 220808Z 12007KT 00/M04 A2991 RMK A01 T00021039  RH  074%=      5-min Rain = 0
KUM1 220809Z 12007KT 00/M04 A2991 RMK A01 T00021039  RH  074%=      5-min Rain = 0
KUM1 220810Z 12008KT 00/M04 A2992 RMK A01 T00021038  RH  074%=      5-min Rain = 0
KUM1 220811Z 13007KT 00/M04 A2992 RMK A01 T00021038  RH  074%=      5-min Rain = 0
KUM1 220812Z 12008KT 00/M04 A2992 RMK A01 T00021038  RH  074%=      5-min Rain = 0
KUM1 220813Z 12009KT 00/M04 A2992 RMK A01 T00021039  RH  074%=      5-min Rain = 0
KUM1 220814Z 13010KT 00/M04 A2992 RMK A01 T00021038  RH  074%=      5-min Rain = 0
KUM1 220815Z 13010KT 00/M04 A2992 RMK A01 T00021038  RH  074%=      5-min Rain = 0
KUM1 220816Z 13010KT 00/M04 A2992 RMK A01 T00021038  RH  074%=      5-min Rain = 0
KUM1 220817Z 13011KT 00/M04 A2992 RMK A01 T00021038  RH  074%=      5-min Rain = 0
KUM1 220818Z 13010KT 00/M04 A2992 RMK A01 T00021038  RH  075%=      5-min Rain = 0
KUM1 220819Z 13013KT 00/M04 A2992 RMK A01 T00021038  RH  075%=      5-min Rain = 0
KUM1 220820Z 13010KT 00/M04 A2992 RMK A01 T00021038  RH  075%=      5-min Rain = 0
KUM1 220821Z 13013KT 00/M04 A2992 RMK A01 T00021038  RH  075%=      5-min Rain = 0
KUM1 220822Z 13013KT 00/M04 A2992 RMK A01 T00021038  RH  075%=      5-min Rain = 0
KUM1 220823Z 13014KT 00/M04 A2992 RMK A01 T00021038  RH  075%=      5-min Rain = 0
KUM1 220824Z 13016KT 00/M04 A2992 RMK A01 T00021037  RH  075%=      5-min Rain = 0
KUM1 220825Z 13014KT 00/M04 A2991 RMK A01 T00021037  RH  075%=      5-min Rain = 0
KUM1 220826Z 13016KT 00/M04 A2991 RMK A01 T00021037  RH  075%=      5-min Rain = 0
KUM1 220827Z 12016KT 00/M04 A299 RMK A01 T00021037  RH  075%=      5-min Rain = 0
KUM1 220828Z 11015KT 00/M04 A2989 RMK A01 T00011037  RH  075%=      5-min Rain = 0
KUM1 220829Z 12016G21KT 00/M04 A2989 RMK A01 T00011037  RH  076%=      5-min Rain = 0
KUM1 220830Z 12020KT 00/M04 A2989 RMK A01 T00011036  RH  076%=      5-min Rain = 0
KUM1 220831Z 12017G22KT 00/M04 A2989 RMK A01 T00011036  RH  076%=      5-min Rain = 0
KUM1 220832Z 13018KT 00/M04 A2989 RMK A01 T00011036  RH  076%=      5-min Rain = 0
KUM1 220833Z 13018KT 00/M04 A2989 RMK A01 T00011035  RH  076%=      5-min Rain = 0
KUM1 220834Z 14018KT 00/M04 A299 RMK A01 T00021035  RH  077%=      5-min Rain = 0
KUM1 220835Z 14018KT 00/M03 A2991 RMK A01 T00021034  RH  077%=      5-min Rain = 0
KUM1 220836Z 14017KT 00/M03 A2991 RMK A01 T00021034  RH  077%=      5-min Rain = 0
KUM1 220837Z 13019KT 00/M04 A2991 RMK A01 T00011035  RH  077%=      5-min Rain = 0
KUM1 220838Z 13018KT 00/M03 A2991 RMK A01 T00011034  RH  077%=      5-min Rain = 0
KUM1 220839Z 13016KT 00/M03 A2991 RMK A01 T00021034  RH  077%=      5-min Rain = 0
KUM1 220840Z 13015KT 00/M03 A2991 RMK A01 T00021033  RH  077%=      5-min Rain = 0
KUM1 220841Z 12013KT 00/M03 A2991 RMK A01 T00011034  RH  077%=      5-min Rain = 0
KUM1 220842Z 12012KT 00/M03 A2991 RMK A01 T00011034  RH  077%=      5-min Rain = 0
KUM1 220843Z 12010KT 00/M03 A2992 RMK A01 T00011034  RH  078%=      5-min Rain = 0
KUM1 220844Z 12010KT 00/03 A2992 RMK A01 T00000-34  RH  078%=      5-min Rain = 0
KUM1 220845Z 12009KT 00/03 A2992 RMK A01 T00-00-34  RH  078%=      5-min Rain = 0
KUM1 220846Z 11007KT M00/M04 A2991 RMK A01 T10011035  RH  078%=      5-min Rain = 0
KUM1 220847Z 11008KT M00/M04 A2991 RMK A01 T10011035  RH  078%=      5-min Rain = 0
KUM1 220848Z 10006KT M00/M03 A2991 RMK A01 T10011034  RH  078%=      5-min Rain = 0
KUM1 220849Z 09008KT M00/M04 A2991 RMK A01 T10011035  RH  078%=      5-min Rain = 0
KUM1 220850Z 09009KT M00/M04 A299 RMK A01 T10021035  RH  079%=      5-min Rain = 0
KUM1 220851Z 09008KT M00/M03 A2991 RMK A01 T10021034  RH  079%=      5-min Rain = 0
KUM1 220852Z 09006KT M00/M03 A2991 RMK A01 T10021034  RH  079%=      5-min Rain = 0
KUM1 220853Z 10008KT M00/M03 A2991 RMK A01 T10021034  RH  079%=      5-min Rain = 0
KUM1 220854Z 09007KT M00/M03 A2991 RMK A01 T10021033  RH  079%=      5-min Rain = 0
KUM1 220855Z 08007KT M00/M03 A2991 RMK A01 T10021034  RH  079%=      5-min Rain = 0
KUM1 220856Z 09007KT M00/M03 A2991 RMK A01 T10031034  RH  079%=      5-min Rain = 0
KUM1 220857Z 10007KT M00/M03 A2991 RMK A01 T10031034  RH  080%=      5-min Rain = 0
KUM1 220858Z 10007KT M00/M03 A2992 RMK A01 T10031034  RH  080%=      5-min Rain = 0
KUM1 220859Z 10007KT M00/M03 A2991 RMK A01 T10041034  RH  080%=      5-min Rain = 0
KUM1 220900Z 09008KT M01/M04 A2991 RMK A01 T10051035  RH  080%=      5-min Rain = 0
KUM1 220901Z 08007KT M01/M04 A2991 RMK A01 T10051035  RH  080%=      5-min Rain = 0
KUM1 220902Z 09008KT M01/M03 A2991 RMK A01 T10051034  RH  081%=      5-min Rain = 0
KUM1 220903Z 09009KT M01/M03 A2991 RMK A01 T10061034  RH  081%=      5-min Rain = 0
KUM1 220904Z 09009KT M01/M03 A2991 RMK A01 T10061034  RH  081%=      5-min Rain = 0
KUM1 220905Z 10011KT M01/M03 A2991 RMK A01 T10061034  RH  081%=      5-min Rain = 0
KUM1 220906Z 10007KT M01/M03 A2991 RMK A01 T10061034  RH  081%=      5-min Rain = 0
KUM1 220907Z 10007KT M01/M04 A2991 RMK A01 T10071035  RH  081%=      5-min Rain = 0
KUM1 220908Z 11005KT M01/M04 A2991 RMK A01 T10081036  RH  081%=      5-min Rain = 0
KUM1 220909Z 11007KT M01/M04 A2991 RMK A01 T10081036  RH  082%=      5-min Rain = 0
KUM1 220910Z 11008KT M01/M04 A2991 RMK A01 T10091036  RH  082%=      5-min Rain = 0
KUM1 220911Z 11008KT M01/M04 A2991 RMK A01 T10091035  RH  082%=      5-min Rain = 0
KUM1 220912Z 11009KT M01/M04 A2991 RMK A01 T10091035  RH  083%=      5-min Rain = 0
KUM1 220913Z 11009KT M01/M04 A2991 RMK A01 T10091036  RH  083%=      5-min Rain = 0
KUM1 220914Z 11008KT M01/M04 A2991 RMK A01 T10101035  RH  083%=      5-min Rain = 0
KUM1 220915Z 11009KT M01/M04 A2991 RMK A01 T10101036  RH  083%=      5-min Rain = 0
KUM1 220916Z 11009KT M01/M04 A2991 RMK A01 T10101035  RH  083%=      5-min Rain = 0
KUM1 220917Z 12010KT M01/M04 A2991 RMK A01 T10101035  RH  084%=      5-min Rain = 0
KUM1 220918Z 12010KT M01/M03 A2991 RMK A01 T10101033  RH  084%=      5-min Rain = 0
KUM1 220919Z 12010KT M01/M03 A2991 RMK A01 T10091032  RH  084%=      5-min Rain = 0
KUM1 220920Z 12009KT M01/M03 A2991 RMK A01 T10091032  RH  084%=      5-min Rain = 0
KUM1 220921Z 11010KT M01/M03 A2991 RMK A01 T10081032  RH  084%=      5-min Rain = 0
KUM1 220922Z 12009KT M01/M03 A2991 RMK A01 T10081031  RH  085%=      5-min Rain = 0
KUM1 220923Z 11008KT M01/M03 A2991 RMK A01 T10071030  RH  084%=      5-min Rain = 0
KUM1 220924Z 11008KT M01/M03 A2991 RMK A01 T10071030  RH  084%=      5-min Rain = 0
KUM1 220925Z 11009KT M01/M03 A2991 RMK A01 T10061029  RH  085%=      5-min Rain = 0
KUM1 220926Z 11008KT M01/M03 A2991 RMK A01 T10061029  RH  085%=      5-min Rain = 0
KUM1 220927Z 11007KT M01/M03 A2991 RMK A01 T10061029  RH  085%=      5-min Rain = 0
KUM1 220928Z 11009KT M01/M03 A2991 RMK A01 T10061029  RH  085%=      5-min Rain = 0
KUM1 220929Z 11009KT M01/M03 A2991 RMK A01 T10061029  RH  085%=      5-min Rain = 0
KUM1 220930Z 11007KT M01/M03 A2991 RMK A01 T10061029  RH  085%=      5-min Rain = 0
KUM1 220931Z 11008KT M01/M03 A2991 RMK A01 T10061029  RH  084%=      5-min Rain = 0
KUM1 220932Z 11007KT M01/M03 A2991 RMK A01 T10061029  RH  084%=      5-min Rain = 0
KUM1 220933Z 12008KT M01/M03 A2991 RMK A01 T10061030  RH  084%=      5-min Rain = 0
KUM1 220934Z 12007KT M01/M03 A2991 RMK A01 T10061029  RH  084%=      5-min Rain = 0
KUM1 220935Z 12008KT M01/M03 A2991 RMK A01 T10061029  RH  085%=      5-min Rain = 0
KUM1 220936Z 12008KT M01/M03 A2991 RMK A01 T10061029  RH  085%=      5-min Rain = 0
KUM1 220937Z 12009KT M01/M03 A2991 RMK A01 T10061028  RH  085%=      5-min Rain = 0
KUM1 220938Z 12010KT M01/M03 A2991 RMK A01 T10061028  RH  085%=      5-min Rain = 0
KUM1 220939Z 12009KT M01/M03 A2991 RMK A01 T10061028  RH  085%=      5-min Rain = 0
KUM1 220940Z 12010KT M01/M03 A2991 RMK A01 T10061028  RH  085%=      5-min Rain = 0
KUM1 220941Z 12011KT M01/M03 A2991 RMK A01 T10061028  RH  085%=      5-min Rain = 0
KUM1 220942Z 12010KT M01/M03 A2991 RMK A01 T10061028  RH  085%=      5-min Rain = 0
KUM1 220943Z 12009KT M01/M03 A2991 RMK A01 T10061028  RH  085%=      5-min Rain = 0
KUM1 220944Z 12009KT M01/M03 A2991 RMK A01 T10061028  RH  085%=      5-min Rain = 0
KUM1 220945Z 12009KT M01/M03 A2991 RMK A01 T10061028  RH  085%=      5-min Rain = 0
KUM1 220946Z 12008KT M01/M03 A2991 RMK A01 T10061028  RH  085%=      5-min Rain = 0
KUM1 220947Z 12010KT M01/M03 A2991 RMK A01 T10061027  RH  085%=      5-min Rain = 0
KUM1 220948Z 12009KT M01/M03 A2991 RMK A01 T10061027  RH  085%=      5-min Rain = 0
KUM1 220949Z 12009KT M01/M03 A2991 RMK A01 T10061027  RH  085%=      5-min Rain = 0
KUM1 220950Z 12009KT M01/M03 A2991 RMK A01 T10061027  RH  086%=      5-min Rain = 0
KUM1 220951Z 11007KT M01/M03 A2991 RMK A01 T10061027  RH  086%=      5-min Rain = 0
KUM1 220952Z 12007KT M01/M03 A2991 RMK A01 T10061027  RH  086%=      5-min Rain = 0
KUM1 220953Z 12007KT M01/M03 A2991 RMK A01 T10061027  RH  086%=      5-min Rain = 0
KUM1 220954Z 12007KT M01/M03 A2991 RMK A01 T10061027  RH  086%=      5-min Rain = 0
KUM1 220955Z 11008KT M01/M03 A2991 RMK A01 T10061027  RH  086%=      5-min Rain = 0
KUM1 220956Z 11008KT M01/M03 A2991 RMK A01 T10061027  RH  086%=      5-min Rain = 0
KUM1 220957Z 11008KT M01/M03 A2991 RMK A01 T10061027  RH  086%=      5-min Rain = 0
KUM1 220958Z 10005KT M01/M03 A2991 RMK A01 T10061027  RH  086%=      5-min Rain = 0
KUM1 220959Z 11007KT M01/M03 A2991 RMK A01 T10071027  RH  086%=      5-min Rain = 0
KUM1 221000Z 10007KT M01/M03 A2991 RMK A01 T10071027  RH  086%=      5-min Rain = 0
KUM1 221001Z 11006KT M01/M03 A2991 RMK A01 T10071027  RH  086%=      5-min Rain = 0
KUM1 221002Z 11007KT M01/M03 A2991 RMK A01 T10071027  RH  086%=      5-min Rain = 0
KUM1 221003Z 11007KT M01/M03 A2991 RMK A01 T10071027  RH  087%=      5-min Rain = 0
KUM1 221004Z 11006KT M01/M03 A2991 RMK A01 T10081027  RH  087%=      5-min Rain = 0
KUM1 221005Z 11006KT M01/M03 A2991 RMK A01 T10081026  RH  087%=      5-min Rain = 0
KUM1 221006Z 11006KT M01/M03 A299 RMK A01 T10071026  RH  087%=      5-min Rain = 0
KUM1 221007Z 10006KT M01/M03 A299 RMK A01 T10071026  RH  087%=      5-min Rain = 0
KUM1 221008Z 11004KT M01/M03 A299 RMK A01 T10081026  RH  087%=      5-min Rain = 0
KUM1 221009Z 10006KT M01/M03 A299 RMK A01 T10081026  RH  087%=      5-min Rain = 0
KUM1 221010Z 11007KT M01/M03 A299 RMK A01 T10081026  RH  087%=      5-min Rain = 0
KUM1 221011Z 10006KT M01/M03 A299 RMK A01 T10081026  RH  088%=      5-min Rain = 0
KUM1 221012Z 10007KT M01/M03 A299 RMK A01 T10091027  RH  088%=      5-min Rain = 0
KUM1 221013Z 10005KT M01/M03 A299 RMK A01 T10091026  RH  088%=      5-min Rain = 0
KUM1 221014Z 10006KT M01/M03 A299 RMK A01 T10091027  RH  088%=      5-min Rain = 0
KUM1 221015Z 10006KT M01/M03 A299 RMK A01 T10101026  RH  088%=      5-min Rain = 0
KUM1 221016Z 10007KT M01/M03 A299 RMK A01 T10091026  RH  089%=      5-min Rain = 0
KUM1 221017Z 10007KT M01/M03 A299 RMK A01 T10101026  RH  089%=      5-min Rain = 0
KUM1 221018Z 10007KT M01/M03 A299 RMK A01 T10091025  RH  089%=      5-min Rain = 0
KUM1 221019Z 10009KT M01/M03 A299 RMK A01 T10091025  RH  089%=      5-min Rain = 0
KUM1 221020Z 10008KT M01/M02 A299 RMK A01 T10091024  RH  090%=      5-min Rain = 0
KUM1 221021Z 10007KT M01/M03 A299 RMK A01 T10091025  RH  090%=      5-min Rain = 0
KUM1 221022Z 09007KT M01/M03 A299 RMK A01 T10101025  RH  090%=      5-min Rain = 0
KUM1 221023Z 10009KT M01/M02 A299 RMK A01 T10101024  RH  090%=      5-min Rain = 0
KUM1 221024Z 10006KT M01/M02 A299 RMK A01 T10091024  RH  090%=      5-min Rain = 0
KUM1 221025Z 10007KT M01/M02 A299 RMK A01 T10101024  RH  090%=      5-min Rain = 0
KUM1 221026Z 11007KT M01/M02 A299 RMK A01 T10101023  RH  091%=      5-min Rain = 0
KUM1 221027Z 11008KT M01/M02 A299 RMK A01 T10101023  RH  091%=      5-min Rain = 0
KUM1 221028Z 09007KT M01/M02 A299 RMK A01 T10101023  RH  091%=      5-min Rain = 0
KUM1 221029Z 10008KT M01/M02 A299 RMK A01 T10101023  RH  091%=      5-min Rain = 0
KUM1 221030Z 11007KT M01/M02 A299 RMK A01 T10101023  RH  091%=      5-min Rain = 0
KUM1 221031Z 11008KT M01/M02 A299 RMK A01 T10101022  RH  091%=      5-min Rain = 0
KUM1 221032Z 11007KT M01/M02 A299 RMK A01 T10101022  RH  091%=      5-min Rain = 0
KUM1 221033Z 11009KT M01/M02 A299 RMK A01 T10101021  RH  092%=      5-min Rain = 0
KUM1 221034Z 10008KT M01/M02 A299 RMK A01 T10101021  RH  092%=      5-min Rain = 0
KUM1 221035Z 11009KT M01/M02 A299 RMK A01 T10101021  RH  092%=      5-min Rain = 0
KUM1 221036Z 11008KT M01/M02 A299 RMK A01 T10101021  RH  092%=      5-min Rain = 0
KUM1 221037Z 11010KT M01/M02 A299 RMK A01 T10101021  RH  092%=      5-min Rain = 0
KUM1 221038Z 11009KT M01/M02 A299 RMK A01 T10101021  RH  092%=      5-min Rain = 0
KUM1 221039Z 11009KT M01/M02 A299 RMK A01 T10101021  RH  092%=      5-min Rain = 0
KUM1 221040Z 11008KT M01/M02 A299 RMK A01 T10101021  RH  093%=      5-min Rain = 0
KUM1 221041Z 11010KT M01/M02 A299 RMK A01 T10101021  RH  093%=      5-min Rain = 0
KUM1 221042Z 11009KT M01/M02 A299 RMK A01 T10101021  RH  093%=      5-min Rain = 0
KUM1 221043Z 11009KT M01/M02 A299 RMK A01 T10101020  RH  093%=      5-min Rain = 0
KUM1 221044Z 12010KT M01/M02 A2989 RMK A01 T10101020  RH  093%=      5-min Rain = 0
KUM1 221045Z 12009KT M01/M02 A2989 RMK A01 T10101020  RH  093%=      5-min Rain = 0
KUM1 221046Z 12011KT M01/M02 A2989 RMK A01 T10101019  RH  094%=      5-min Rain = 0
KUM1 221047Z 12011KT M01/M02 A2989 RMK A01 T10111019  RH  094%=      5-min Rain = 0
KUM1 221048Z 12011KT M01/M02 A2989 RMK A01 T10101018  RH  094%=      5-min Rain = 0
KUM1 221049Z 12011KT M01/M02 A2989 RMK A01 T10101018  RH  095%=      5-min Rain = 0
KUM1 221050Z 12011KT M01/M02 A2989 RMK A01 T10101018  RH  095%=      5-min Rain = 0
KUM1 221051Z 12012KT M01/M02 A2989 RMK A01 T10101017  RH  095%=      5-min Rain = 0
KUM1 221052Z 12010KT M01/M02 A2989 RMK A01 T10101017  RH  095%=      5-min Rain = 0
KUM1 221053Z 12010KT M01/M02 A2989 RMK A01 T10101017  RH  095%=      5-min Rain = 0
KUM1 221054Z 12009KT M01/M02 A2989 RMK A01 T10101017  RH  095%=      5-min Rain = 0
KUM1 221055Z 12011KT M01/M02 A2989 RMK A01 T10101016  RH  095%=      5-min Rain = 0
KUM1 221056Z 12013KT M01/M02 A2989 RMK A01 T10101016  RH  096%=      5-min Rain = 0
KUM1 221057Z 12011KT M01/M02 A2989 RMK A01 T10091016  RH  096%=      5-min Rain = 0
KUM1 221058Z 12010KT M01/M02 A2989 RMK A01 T10091015  RH  096%=      5-min Rain = 0
KUM1 221059Z 12010KT M01/M02 A2989 RMK A01 T10091015  RH  096%=      5-min Rain = 0
KUM1 221100Z 12011KT M01/M02 A2989 RMK A01 T10091015  RH  096%=      5-min Rain = 0
KUM1 221101Z 12012KT M01/M01 A2989 RMK A01 T10091014  RH  096%=      5-min Rain = 0
KUM1 221102Z 12011KT M01/M01 A2989 RMK A01 T10081014  RH  096%=      5-min Rain = 0
KUM1 221103Z 12011KT M01/M01 A2989 RMK A01 T10081013  RH  096%=      5-min Rain = 0
KUM1 221104Z 12012KT M01/M01 A2989 RMK A01 T10081013  RH  096%=      5-min Rain = 0
KUM1 221105Z 12013KT M01/M01 A2989 RMK A01 T10071013  RH  096%=      5-min Rain = 0
KUM1 221106Z 13011KT M01/M01 A2989 RMK A01 T10071012  RH  096%=      5-min Rain = 0
KUM1 221107Z 12009KT M01/M01 A2989 RMK A01 T10071012  RH  096%=      5-min Rain = 0
KUM1 221108Z 12013KT M01/M01 A2989 RMK A01 T10071012  RH  096%=      5-min Rain = 0
KUM1 221109Z 13013KT M01/M01 A2989 RMK A01 T10061011  RH  096%=      5-min Rain = 0
KUM1 221110Z 12012KT M01/M01 A2989 RMK A01 T10061011  RH  096%=      5-min Rain = 0
KUM1 221111Z 13012KT M01/M01 A2989 RMK A01 T10061011  RH  096%=      5-min Rain = 0
KUM1 221112Z 13011KT M01/M01 A2989 RMK A01 T10061011  RH  096%=      5-min Rain = 0
KUM1 221113Z 12011KT M01/M01 A2989 RMK A01 T10061011  RH  096%=      5-min Rain = 0
KUM1 221114Z 12012KT M01/M01 A2989 RMK A01 T10061011  RH  097%=      5-min Rain = 0
KUM1 221115Z 13011KT M01/M01 A2989 RMK A01 T10061011  RH  097%=      5-min Rain = 0
KUM1 221116Z 12013KT M01/M01 A2989 RMK A01 T10061010  RH  097%=      5-min Rain = 0
KUM1 221117Z 12012KT M01/M01 A2989 RMK A01 T10051010  RH  097%=      5-min Rain = 0
KUM1 221118Z 13012KT M01/M01 A2989 RMK A01 T10051010  RH  097%=      5-min Rain = 0
KUM1 221119Z 13012KT M01/M01 A2989 RMK A01 T10051010  RH  097%=      5-min Rain = 0
KUM1 221120Z 13012KT M01/M01 A2989 RMK A01 T10051010  RH  097%=      5-min Rain = 0
KUM1 221121Z 13012KT M01/M01 A2989 RMK A01 T10051010  RH  097%=      5-min Rain = 0
KUM1 221122Z 13011KT M01/M01 A2989 RMK A01 T10051009  RH  097%=      5-min Rain = 0
KUM1 221123Z 13010KT M01/M01 A2989 RMK A01 T10051009  RH  097%=      5-min Rain = 0
KUM1 221124Z 12011KT M01/M01 A2989 RMK A01 T10051009  RH  097%=      5-min Rain = 0
KUM1 221125Z 13012KT M00/M01 A2989 RMK A01 T10041008  RH  097%=      5-min Rain = 0
KUM1 221126Z 13010KT M01/M01 A2989 RMK A01 T10051009  RH  097%=      5-min Rain = 0
KUM1 221127Z 13010KT M00/M01 A2989 RMK A01 T10041009  RH  097%=      5-min Rain = 0
KUM1 221128Z 13011KT M00/M01 A2989 RMK A01 T10041008  RH  097%=      5-min Rain = 0
KUM1 221129Z 13011KT M00/M01 A2989 RMK A01 T10041008  RH  097%=      5-min Rain = 0
KUM1 221130Z 12009KT M00/M01 A2989 RMK A01 T10041008  RH  097%=      5-min Rain = 0
KUM1 221131Z 12008KT M00/M01 A2989 RMK A01 T10041008  RH  097%=      5-min Rain = 0
KUM1 221132Z 12009KT M00/M01 A2989 RMK A01 T10031007  RH  097%=      5-min Rain = 0
KUM1 221133Z 13009KT M00/M01 A2989 RMK A01 T10031008  RH  097%=      5-min Rain = 0
KUM1 221134Z 12009KT M00/M01 A2989 RMK A01 T10031007  RH  097%=      5-min Rain = 0
KUM1 221135Z 13011KT M00/M01 A2989 RMK A01 T10041008  RH  097%=      5-min Rain = 0
KUM1 221136Z 13011KT M00/M01 A2989 RMK A01 T10031007  RH  097%=      5-min Rain = 0
KUM1 221137Z 13012KT M00/M01 A2989 RMK A01 T10031007  RH  097%=      5-min Rain = 0
KUM1 221138Z 13012KT M00/M01 A2989 RMK A01 T10031007  RH  097%=      5-min Rain = 0
KUM1 221139Z 13011KT M00/M01 A2989 RMK A01 T10031007  RH  097%=      5-min Rain = 0
KUM1 221140Z 13011KT M00/M01 A2989 RMK A01 T10031006  RH  097%=      5-min Rain = 0
KUM1 221141Z 13009KT M00/M01 A2989 RMK A01 T10031007  RH  098%=      5-min Rain = 0
KUM1 221142Z 13008KT M00/M01 A2989 RMK A01 T10031006  RH  098%=      5-min Rain = 0
KUM1 221143Z 13010KT M00/M01 A2989 RMK A01 T10031006  RH  098%=      5-min Rain = 0
KUM1 221144Z 13012KT M00/M01 A2989 RMK A01 T10031006  RH  098%=      5-min Rain = 0
KUM1 221145Z 13010KT M00/M01 A2989 RMK A01 T10021006  RH  098%=      5-min Rain = 0
KUM1 221146Z 13011KT M00/M01 A2989 RMK A01 T10031006  RH  098%=      5-min Rain = 0
KUM1 221147Z 14012KT M00/M01 A2989 RMK A01 T10021005  RH  098%=      5-min Rain = 0
KUM1 221148Z 13010KT M00/M01 A2989 RMK A01 T10021006  RH  098%=      5-min Rain = 0
KUM1 221149Z 13011KT M00/M01 A2989 RMK A01 T10021005  RH  098%=      5-min Rain = 0
KUM1 221150Z 13012KT M00/M01 A2989 RMK A01 T10021005  RH  098%=      5-min Rain = 0
KUM1 221151Z 13012KT M00/M01 A2989 RMK A01 T10021005  RH  098%=      5-min Rain = 0
KUM1 221152Z 13012KT M00/M01 A2988 RMK A01 T10021005  RH  098%=      5-min Rain = 0
KUM1 221153Z 13011KT M00/M01 A2988 RMK A01 T10021005  RH  098%=      5-min Rain = 0
KUM1 221154Z 13012KT M00/M01 A2988 RMK A01 T10021005  RH  098%=      5-min Rain = 0
KUM1 221155Z 14014KT M00/M01 A2988 RMK A01 T10021005  RH  098%=      5-min Rain = 0
KUM1 221156Z 13015KT M00/M00 A2988 RMK A01 T10011004  RH  098%=      5-min Rain = 0
KUM1 221157Z 14014KT M00/M00 A2988 RMK A01 T10011004  RH  098%=      5-min Rain = 0
KUM1 221158Z 14014KT M00/M00 A2989 RMK A01 T10011004  RH  098%=      5-min Rain = 0
KUM1 221159Z 14014KT M00/M00 A2989 RMK A01 T10011004  RH  098%=      5-min Rain = 0
KUM1 221200Z 14013KT M00/M00 A2989 RMK A01 T10011004  RH  098%=      5-min Rain = 0
KUM1 221201Z 14012KT M00/M00 A2989 RMK A01 T10011004  RH  098%=      5-min Rain = 0
KUM1 221202Z 14013KT M00/M00 A2989 RMK A01 T10011004  RH  098%=      5-min Rain = 0
KUM1 221203Z 14012KT M00/M00 A2989 RMK A01 T10011004  RH  098%=      5-min Rain = 0
KUM1 221204Z 14012KT M00/M00 A2989 RMK A01 T10011004  RH  098%=      5-min Rain = 0
KUM1 221205Z 14013KT M00/M00 A2989 RMK A01 T10011004  RH  098%=      5-min Rain = 0
KUM1 221206Z 14014KT M00/M00 A2989 RMK A01 T10011004  RH  098%=      5-min Rain = 0
KUM1 221207Z 14014KT M00/M00 A2989 RMK A01 T10011004  RH  098%=      5-min Rain = 0
KUM1 221208Z 13014KT M00/M00 A2989 RMK A01 T10011004  RH  098%=      5-min Rain = 0
KUM1 221209Z 13013KT M00/M00 A2989 RMK A01 T10011004  RH  098%=      5-min Rain = 0
KUM1 221210Z 14014KT M00/M00 A2989 RMK A01 T10011004  RH  098%=      5-min Rain = 0
KUM1 221211Z 13014KT M00/M00 A2989 RMK A01 T10011004  RH  098%=      5-min Rain = 0
KUM1 221212Z 13014KT M00/M00 A2989 RMK A01 T10011004  RH  098%=      5-min Rain = 0
KUM1 221213Z 13012KT M00/M00 A2989 RMK A01 T10011004  RH  098%=      5-min Rain = 0
KUM1 221214Z 13013KT M00/M00 A2989 RMK A01 T10011004  RH  098%=      5-min Rain = 0
KUM1 221215Z 14013KT M00/M00 A2989 RMK A01 T10011004  RH  098%=      5-min Rain = 0
KUM1 221216Z 13013KT M00/M00 A2989 RMK A01 T10011004  RH  098%=      5-min Rain = 0
KUM1 221217Z 13014KT M00/M00 A2989 RMK A01 T10011004  RH  098%=      5-min Rain = 0
KUM1 221218Z 13014KT M00/M00 A2989 RMK A01 T10011004  RH  098%=      5-min Rain = 0
KUM1 221219Z 13013KT M00/M00 A2989 RMK A01 T10011004  RH  098%=      5-min Rain = 0
KUM1 221220Z 13013KT M00/M00 A2989 RMK A01 T10011004  RH  098%=      5-min Rain = 0
KUM1 221221Z 13014KT M00/M00 A2989 RMK A01 T10011003  RH  098%=      5-min Rain = 0
KUM1 221222Z 13013KT M00/M00 A2989 RMK A01 T10011004  RH  098%=      5-min Rain = 0
KUM1 221223Z 13012KT M00/M00 A2989 RMK A01 T10011003  RH  098%=      5-min Rain = 0
KUM1 221224Z 13013KT M00/M00 A2989 RMK A01 T10011003  RH  098%=      5-min Rain = 0
KUM1 221225Z 13012KT M00/M00 A2989 RMK A01 T10011004  RH  098%=      5-min Rain = 0
KUM1 221226Z 13013KT M00/M00 A2989 RMK A01 T10011004  RH  098%=      5-min Rain = 0
KUM1 221227Z 13014KT M00/M00 A2989 RMK A01 T10011004  RH  098%=      5-min Rain = 0
KUM1 221228Z 13013KT M00/M00 A2989 RMK A01 T10011003  RH  098%=      5-min Rain = 0
KUM1 221229Z 13014KT M00/M00 A2989 RMK A01 T10011003  RH  098%=      5-min Rain = 0
KUM1 221230Z 14013KT M00/M00 A2989 RMK A01 T10011003  RH  098%=      5-min Rain = 0
KUM1 221231Z 13012KT M00/M00 A2989 RMK A01 T10011003  RH  098%=      5-min Rain = 0
KUM1 221232Z 14011KT M00/M00 A2989 RMK A01 T10011003  RH  098%=      5-min Rain = 0
KUM1 221233Z 13010KT M00/M00 A2989 RMK A01 T10011003  RH  099%=      5-min Rain = 0
KUM1 221234Z 13011KT M00/M00 A2989 RMK A01 T10011003  RH  099%=      5-min Rain = 0
KUM1 221235Z 13011KT M00/M00 A2989 RMK A01 T10011003  RH  099%=      5-min Rain = 0
KUM1 221236Z 14012KT M00/M00 A2989 RMK A01 T10011003  RH  099%=      5-min Rain = 0
KUM1 221237Z 13012KT M00/M00 A2989 RMK A01 T10011003  RH  099%=      5-min Rain = 0
KUM1 221238Z 13012KT M00/M00 A2989 RMK A01 T10011003  RH  099%=      5-min Rain = 0
KUM1 221239Z 13011KT M00/M00 A2989 RMK A01 T10011003  RH  099%=      5-min Rain = 0
KUM1 221240Z 13011KT M00/M00 A2989 RMK A01 T10011003  RH  099%=      5-min Rain = 0
KUM1 221241Z 14013KT M00/M00 A2989 RMK A01 T10011003  RH  099%=      5-min Rain = 0
KUM1 221242Z 13010KT M00/M00 A2989 RMK A01 T10011003  RH  099%=      5-min Rain = 0
KUM1 221243Z 13009KT M00/M00 A2989 RMK A01 T10011003  RH  099%=      5-min Rain = 0
KUM1 221244Z 13010KT M00/M00 A2989 RMK A01 T10011003  RH  099%=      5-min Rain = 0
KUM1 221245Z 13010KT M00/M00 A2989 RMK A01 T10011003  RH  099%=      5-min Rain = 0
KUM1 221246Z 13012KT M00/M00 A299 RMK A01 T10011003  RH  099%=      5-min Rain = 0
KUM1 221247Z 13012KT M00/M00 A299 RMK A01 T10011003  RH  099%=      5-min Rain = 0
KUM1 221248Z 12012KT M00/M00 A299 RMK A01 T10011003  RH  099%=      5-min Rain = 0
KUM1 221249Z 12011KT M00/M00 A299 RMK A01 T10011003  RH  099%=      5-min Rain = 0
KUM1 221250Z 13011KT M00/M00 A299 RMK A01 T10021003  RH  099%=      5-min Rain = 0
KUM1 221251Z 13010KT M00/M00 A299 RMK A01 T10021003  RH  099%=      5-min Rain = 0
KUM1 221252Z 13010KT M00/M00 A2989 RMK A01 T10021003  RH  099%=      5-min Rain = 0
KUM1 221253Z 13011KT M00/M00 A2989 RMK A01 T10011003  RH  099%=      5-min Rain = 0
KUM1 221254Z 13012KT M00/M00 A299 RMK A01 T10021003  RH  099%=      5-min Rain = 0
KUM1 221255Z 13011KT M00/M00 A2989 RMK A01 T10021004  RH  099%=      5-min Rain = 0
KUM1 221256Z 13011KT M00/M00 A2989 RMK A01 T10021003  RH  099%=      5-min Rain = 0
KUM1 221257Z 13011KT M00/M00 A2989 RMK A01 T10021004  RH  099%=      5-min Rain = 0
KUM1 221258Z 13010KT M00/M00 A2989 RMK A01 T10021003  RH  099%=      5-min Rain = 0
KUM1 221259Z 13011KT M00/M00 A2989 RMK A01 T10011003  RH  099%=      5-min Rain = 0
KUM1 221300Z 13011KT M00/M00 A2989 RMK A01 T10021003  RH  099%=      5-min Rain = 0
KUM1 221301Z 13011KT M00/M00 A2989 RMK A01 T10021003  RH  099%=      5-min Rain = 0
KUM1 221302Z 13011KT M00/M00 A2989 RMK A01 T10021003  RH  099%=      5-min Rain = 0
KUM1 221303Z 13011KT M00/M00 A299 RMK A01 T10021003  RH  099%=      5-min Rain = 0
KUM1 221304Z 13012KT M00/M00 A299 RMK A01 T10021003  RH  099%=      5-min Rain = 0
KUM1 221305Z 13013KT M00/M00 A299 RMK A01 T10021003  RH  099%=      5-min Rain = 0
KUM1 221306Z 13013KT M00/M00 A299 RMK A01 T10011003  RH  099%=      5-min Rain = 0
KUM1 221307Z 13013KT M00/M00 A299 RMK A01 T10021003  RH  099%=      5-min Rain = 0
KUM1 221308Z 13014KT M00/M00 A299 RMK A01 T10021003  RH  099%=      5-min Rain = 0
KUM1 221309Z 13012KT M00/M00 A299 RMK A01 T10021003  RH  099%=      5-min Rain = 0
KUM1 221310Z 13012KT M00/M00 A299 RMK A01 T10021003  RH  099%=      5-min Rain = 0
KUM1 221311Z 13011KT M00/M00 A299 RMK A01 T10011003  RH  099%=      5-min Rain = 0
KUM1 221312Z 13011KT M00/M00 A299 RMK A01 T10021003  RH  099%=      5-min Rain = 0
KUM1 221313Z 13014KT M00/M00 A299 RMK A01 T10021004  RH  099%=      5-min Rain = 0
KUM1 221314Z 13012KT M00/M00 A299 RMK A01 T10021004  RH  099%=      5-min Rain = 0
KUM1 221315Z 13012KT M00/M00 A299 RMK A01 T10021004  RH  099%=      5-min Rain = 0
KUM1 221316Z 13012KT M00/M00 A299 RMK A01 T10021003  RH  099%=      5-min Rain = 0
KUM1 221317Z 13011KT M00/M00 A299 RMK A01 T10021003  RH  099%=      5-min Rain = 0
KUM1 221318Z 13011KT M00/M00 A299 RMK A01 T10021003  RH  099%=      5-min Rain = 0
KUM1 221319Z 13011KT M00/M00 A299 RMK A01 T10021004  RH  099%=      5-min Rain = 0
KUM1 221320Z 13011KT M00/M00 A299 RMK A01 T10021003  RH  099%=      5-min Rain = 0
KUM1 221321Z 13010KT M00/M00 A299 RMK A01 T10021003  RH  099%=      5-min Rain = 0
KUM1 221322Z 14010KT M00/M00 A299 RMK A01 T10021003  RH  099%=      5-min Rain = 0
KUM1 221323Z 14009KT M00/M00 A299 RMK A01 T10021004  RH  099%=      5-min Rain = 0
KUM1 221324Z 13009KT M00/M00 A299 RMK A01 T10021004  RH  099%=      5-min Rain = 0
KUM1 221325Z 14011KT M00/M00 A2991 RMK A01 T10021004  RH  099%=      5-min Rain = 0
KUM1 221326Z 14011KT M00/M00 A2991 RMK A01 T10021003  RH  099%=      5-min Rain = 0
KUM1 221327Z 15010KT M00/M00 A2991 RMK A01 T10021003  RH  099%=      5-min Rain = 0
KUM1 221328Z 15010KT M00/M00 A2991 RMK A01 T10021003  RH  099%=      5-min Rain = 0
KUM1 221329Z 15010KT M00/M00 A2991 RMK A01 T10021003  RH  099%=      5-min Rain = 0
KUM1 221330Z 14010KT M00/M00 A2991 RMK A01 T10021003  RH  099%=      5-min Rain = 0
KUM1 221331Z 15011KT M00/M00 A2991 RMK A01 T10021003  RH  099%=      5-min Rain = 0
KUM1 221332Z 15010KT M00/M00 A2991 RMK A01 T10021003  RH  099%=      5-min Rain = 0
KUM1 221333Z 15009KT M00/M00 A2991 RMK A01 T10021003  RH  099%=      5-min Rain = 0
KUM1 221334Z 15009KT M00/M00 A2991 RMK A01 T10021003  RH  099%=      5-min Rain = 0
KUM1 221335Z 15009KT M00/M00 A2991 RMK A01 T10021003  RH  099%=      5-min Rain = 0
KUM1 221336Z 14008KT M00/M00 A2992 RMK A01 T10021003  RH  099%=      5-min Rain = 0
KUM1 221337Z 15007KT M00/M00 A2992 RMK A01 T10021003  RH  099%=      5-min Rain = 0
KUM1 221338Z 15007KT M00/M00 A2992 RMK A01 T10011002  RH  099%=      5-min Rain = 0
KUM1 221339Z 15008KT M00/M00 A2992 RMK A01 T10011002  RH  099%=      5-min Rain = 0
KUM1 221340Z 15006KT M00/M00 A2992 RMK A01 T10011002  RH  099%=      5-min Rain = 0
KUM1 221341Z 16007KT M00/M00 A2992 RMK A01 T10011002  RH  099%=      5-min Rain = 0
KUM1 221342Z 14006KT M00/M00 A2992 RMK A01 T10011002  RH  099%=      5-min Rain = 0
KUM1 221343Z 15007KT M00/M00 A2992 RMK A01 T10011002  RH  099%=      5-min Rain = 0
KUM1 221344Z 15006KT M00/M00 A2993 RMK A01 T10011002  RH  099%=      5-min Rain = 0
KUM1 221345Z 15005KT M00/M00 A2993 RMK A01 T10011002  RH  099%=      5-min Rain = 0
KUM1 221346Z 15006KT M00/M00 A2993 RMK A01 T10011002  RH  099%=      5-min Rain = 0
KUM1 221347Z 15007KT M00/M00 A2993 RMK A01 T10011002  RH  099%=      5-min Rain = 0
KUM1 221348Z 15007KT M00/M00 A2993 RMK A01 T10011002  RH  099%=      5-min Rain = 0
KUM1 221349Z 14007KT M00/M00 A2993 RMK A01 T10011002  RH  099%=      5-min Rain = 0
KUM1 221350Z 15007KT M00/M00 A2993 RMK A01 T10011002  RH  099%=      5-min Rain = 0
KUM1 221351Z 15008KT M00/M00 A2993 RMK A01 T10011001  RH  099%=      5-min Rain = 0
KUM1 221352Z 15008KT M00/M00 A2993 RMK A01 T10011002  RH  099%=      5-min Rain = 0
KUM1 221353Z 14010KT M00/M00 A2993 RMK A01 T10011002  RH  099%=      5-min Rain = 0
KUM1 221354Z 14012KT M00/M00 A2993 RMK A01 T10011002  RH  099%=      5-min Rain = 0
KUM1 221355Z 14011KT M00/M00 A2993 RMK A01 T10011002  RH  099%=      5-min Rain = 0
KUM1 221356Z 14011KT M00/M00 A2993 RMK A01 T10011002  RH  099%=      5-min Rain = 0
KUM1 221357Z 14012KT M00/M00 A2993 RMK A01 T10011002  RH  099%=      5-min Rain = 0
KUM1 221358Z 14011KT M00/M00 A2993 RMK A01 T10011002  RH  099%=      5-min Rain = 0
KUM1 221359Z 14012KT M00/M00 A2993 RMK A01 T10011002  RH  099%=      5-min Rain = 0
KUM1 221400Z 15011KT M00/M00 A2993 RMK A01 T10011002  RH  099%=      5-min Rain = 0
KUM1 221401Z 15008KT 00/00 A2993 RMK A01 T00-000-1  RH  099%=      5-min Rain = 0
KUM1 221402Z 15010KT 00/00 A2993 RMK A01 T000000-1  RH  099%=      5-min Rain = 0
KUM1 221403Z 15011KT 00/00 A2994 RMK A01 T000000-1  RH  099%=      5-min Rain = 0
KUM1 221404Z 16009KT 00/00 A2994 RMK A01 T000000-1  RH  099%=      5-min Rain = 0
KUM1 221405Z 17008KT 00/00 A2994 RMK A01 T000000-1  RH  099%=      5-min Rain = 0
KUM1 221406Z 17008KT 00/00 A2994 RMK A01 T000000-1  RH  099%=      5-min Rain = 0
KUM1 221407Z 16007KT 00/00 A2994 RMK A01 T000000-0  RH  099%=      5-min Rain = 0
KUM1 221408Z 17008KT 00/00 A2994 RMK A01 T000000-1  RH  099%=      5-min Rain = 0
KUM1 221409Z 17006KT 00/00 A2994 RMK A01 T00-000-1  RH  099%=      5-min Rain = 0
KUM1 221410Z 16006KT 00/00 A2994 RMK A01 T00-000-1  RH  099%=      5-min Rain = 0
KUM1 221411Z 16005KT 00/00 A2995 RMK A01 T00-000-1  RH  099%=      5-min Rain = 0
KUM1 221412Z 15006KT 00/00 A2995 RMK A01 T000000-1  RH  099%=      5-min Rain = 0
KUM1 221413Z 15008KT 00/00 A2995 RMK A01 T000000-1  RH  099%=      5-min Rain = 0
KUM1 221414Z 14009KT 00/00 A2994 RMK A01 T000000-0  RH  099%=      5-min Rain = 0
KUM1 221415Z 14010KT 00/00 A2994 RMK A01 T00-000-1  RH  099%=      5-min Rain = 0
KUM1 221416Z 14010KT 00/00 A2994 RMK A01 T00-000-1  RH  099%=      5-min Rain = 0
KUM1 221417Z 15009KT 00/00 A2994 RMK A01 T00-000-1  RH  099%=      5-min Rain = 0
KUM1 221418Z 15010KT 00/00 A2994 RMK A01 T000000-1  RH  099%=      5-min Rain = 0
KUM1 221419Z 15010KT 00/00 A2994 RMK A01 T000000-1  RH  099%=      5-min Rain = 0
KUM1 221420Z 15010KT 00/00 A2994 RMK A01 T000000-1  RH  099%=      5-min Rain = 0
KUM1 221421Z 15009KT 00/00 A2994 RMK A01 T000000-1  RH  099%=      5-min Rain = 0
KUM1 221422Z 15009KT 00/00 A2994 RMK A01 T000000-1  RH  099%=      5-min Rain = 0
KUM1 221423Z 15010KT 00/00 A2995 RMK A01 T000000-1  RH  099%=      5-min Rain = 0
KUM1 221424Z 14009KT 00/00 A2995 RMK A01 T000000-1  RH  099%=      5-min Rain = 0
KUM1 221425Z 14008KT 00/00 A2995 RMK A01 T000000-1  RH  099%=      5-min Rain = 0
KUM1 221426Z 15007KT 00/00 A2995 RMK A01 T000000-1  RH  099%=      5-min Rain = 0
KUM1 221427Z 15008KT 00/00 A2995 RMK A01 T000000-1  RH  099%=      5-min Rain = 0
KUM1 221428Z 15007KT 00/00 A2995 RMK A01 T000000-0  RH  099%=      5-min Rain = 0
KUM1 221429Z 14006KT 00/00 A2995 RMK A01 T000000-1  RH  099%=      5-min Rain = 0
KUM1 221430Z 14008KT 00/00 A2995 RMK A01 T000000-0  RH  099%=      5-min Rain = 0
KUM1 221431Z 14008KT 00/00 A2995 RMK A01 T00010000  RH  100%=      5-min Rain = 0
KUM1 221432Z 14007KT 00/00 A2995 RMK A01 T00010000  RH  099%=      5-min Rain = 0
KUM1 221433Z 15010KT 00/00 A2995 RMK A01 T00010000  RH  100%=      5-min Rain = 0
KUM1 221434Z 15009KT 00/00 A2995 RMK A01 T00010000  RH  100%=      5-min Rain = 0
KUM1 221435Z 14009KT 00/00 A2995 RMK A01 T00010000  RH  099%=      5-min Rain = 0
KUM1 221436Z 14009KT 00/00 A2995 RMK A01 T00020001  RH  100%=      5-min Rain = 0
KUM1 221437Z 14009KT 00/00 A2995 RMK A01 T00010000  RH  100%=      5-min Rain = 0
KUM1 221438Z 14009KT 00/00 A2995 RMK A01 T00010001  RH  099%=      5-min Rain = 0
KUM1 221439Z 13008KT 00/00 A2995 RMK A01 T00010001  RH  100%=      5-min Rain = 0
KUM1 221440Z 13009KT 00/00 A2995 RMK A01 T00010000  RH  100%=      5-min Rain = 0
KUM1 221441Z 13009KT 00/00 A2995 RMK A01 T00010000  RH  100%=      5-min Rain = 0
KUM1 221442Z 13009KT 00/00 A2995 RMK A01 T000100-0  RH  099%=      5-min Rain = 0
KUM1 221443Z 13009KT 00/00 A2995 RMK A01 T000100-0  RH  099%=      5-min Rain = 0
KUM1 221444Z 14009KT 00/00 A2995 RMK A01 T000100-0  RH  100%=      5-min Rain = 0
KUM1 221445Z 15009KT 00/00 A2995 RMK A01 T00010000  RH  100%=      5-min Rain = 0
KUM1 221446Z 14009KT 00/00 A2996 RMK A01 T00010000  RH  100%=      5-min Rain = 0
KUM1 221447Z 14010KT 00/00 A2996 RMK A01 T00010001  RH  100%=      5-min Rain = 0
KUM1 221448Z 14010KT 00/00 A2996 RMK A01 T00010001  RH  100%=      5-min Rain = 0
KUM1 221449Z 14007KT 00/00 A2996 RMK A01 T00010000  RH  100%=      5-min Rain = 0
KUM1 221450Z 14010KT 00/00 A2996 RMK A01 T00020001  RH  100%=      5-min Rain = 0
KUM1 221451Z 14010KT 00/00 A2996 RMK A01 T00010001  RH  100%=      5-min Rain = 0
KUM1 221452Z 14011KT 00/00 A2996 RMK A01 T00010001  RH  100%=      5-min Rain = 0
KUM1 221453Z 14010KT 00/00 A2996 RMK A01 T00010000  RH  100%=      5-min Rain = 0
KUM1 221454Z 14009KT 00/00 A2996 RMK A01 T000000-0  RH  100%=      5-min Rain = 0
KUM1 221455Z 14007KT 00/00 A2996 RMK A01 T00010000  RH  100%=      5-min Rain = 0
KUM1 221456Z 14008KT 00/00 A2996 RMK A01 T00010001  RH  100%=      5-min Rain = 0
KUM1 221457Z 13007KT 00/00 A2996 RMK A01 T00010000  RH  100%=      5-min Rain = 0
KUM1 221458Z 13007KT 00/00 A2996 RMK A01 T00010000  RH  100%=      5-min Rain = 0
KUM1 221459Z 13008KT 00/00 A2996 RMK A01 T00010000  RH  100%=      5-min Rain = 0
KUM1 221500Z 14008KT 00/00 A2996 RMK A01 T00010001  RH  100%=      5-min Rain = 0
KUM1 221501Z 13007KT 00/00 A2996 RMK A01 T00010001  RH  100%=      5-min Rain = 0
KUM1 221502Z 13008KT 00/00 A2996 RMK A01 T00010000  RH  100%=      5-min Rain = 0
KUM1 221503Z 14009KT 00/00 A2996 RMK A01 T000000-0  RH  100%=      5-min Rain = 0
KUM1 221504Z 14010KT 00/00 A2996 RMK A01 T000100-0  RH  100%=      5-min Rain = 0
KUM1 221505Z 14010KT 00/00 A2996 RMK A01 T00010001  RH  100%=      5-min Rain = 0
KUM1 221506Z 14010KT 00/00 A2997 RMK A01 T00010000  RH  100%=      5-min Rain = 0
KUM1 221507Z 14009KT 00/00 A2997 RMK A01 T00010000  RH  100%=      5-min Rain = 0
KUM1 221508Z 14009KT 00/00 A2997 RMK A01 T00010000  RH  100%=      5-min Rain = 0
KUM1 221509Z 13010KT 00/00 A2997 RMK A01 T00010000  RH  100%=      5-min Rain = 0
KUM1 221510Z 13011KT 00/00 A2996 RMK A01 T00010001  RH  100%=      5-min Rain = 0
KUM1 221511Z 14010KT 00/00 A2997 RMK A01 T00010000  RH  100%=      5-min Rain = 0
KUM1 221512Z 14008KT 00/00 A2997 RMK A01 T00010001  RH  100%=      5-min Rain = 0
KUM1 221513Z 14008KT 00/00 A2997 RMK A01 T00020002  RH  100%=      5-min Rain = 0
KUM1 221514Z 14009KT 00/00 A2997 RMK A01 T00030002  RH  100%=      5-min Rain = 0
KUM1 221515Z 14009KT 00/00 A2997 RMK A01 T00020001  RH  100%=      5-min Rain = 0
KUM1 221516Z 14008KT 00/00 A2997 RMK A01 T00020001  RH  100%=      5-min Rain = 0
KUM1 221517Z 14009KT 00/00 A2997 RMK A01 T00020002  RH  100%=      5-min Rain = 0
KUM1 221518Z 14009KT 00/00 A2997 RMK A01 T00030002  RH  100%=      5-min Rain = 0
KUM1 221519Z 14009KT 00/00 A2997 RMK A01 T00030002  RH  100%=      5-min Rain = 0
KUM1 221520Z 14010KT 00/00 A2997 RMK A01 T00030003  RH  100%=      5-min Rain = 0
KUM1 221521Z 14010KT 00/00 A2997 RMK A01 T00040003  RH  100%=      5-min Rain = 0
KUM1 221522Z 14009KT 00/00 A2997 RMK A01 T00030003  RH  100%=      5-min Rain = 0
KUM1 221523Z 14008KT 00/00 A2997 RMK A01 T00040004  RH  100%=      5-min Rain = 0
KUM1 221524Z 15010KT 01/00 A2997 RMK A01 T00050004  RH  100%=      5-min Rain = 0
KUM1 221525Z 15010KT 01/00 A2997 RMK A01 T00050004  RH  100%=      5-min Rain = 0
KUM1 221526Z 15010KT 01/00 A2997 RMK A01 T00050004  RH  100%=      5-min Rain = 0
KUM1 221527Z 15009KT 01/00 A2997 RMK A01 T00050004  RH  100%=      5-min Rain = 0
KUM1 221528Z 15009KT 01/00 A2997 RMK A01 T00050004  RH  100%=      5-min Rain = 0
KUM1 221529Z 15009KT 01/00 A2997 RMK A01 T00050004  RH  100%=      5-min Rain = 0
KUM1 221530Z 15009KT 01/00 A2997 RMK A01 T00050004  RH  100%=      5-min Rain = 0
KUM1 221531Z 14009KT 01/01 A2997 RMK A01 T00050005  RH  100%=      5-min Rain = 0
KUM1 221532Z 14009KT 01/01 A2997 RMK A01 T00060005  RH  100%=      5-min Rain = 0
KUM1 221533Z 14009KT 01/01 A2997 RMK A01 T00060006  RH  100%=      5-min Rain = 0
KUM1 221534Z 13010KT 01/01 A2997 RMK A01 T00070006  RH  100%=      5-min Rain = 0
KUM1 221535Z 14011KT 01/01 A2997 RMK A01 T00060006  RH  100%=      5-min Rain = 0
KUM1 221536Z 13009KT 01/01 A2997 RMK A01 T00060005  RH  100%=      5-min Rain = 0
KUM1 221537Z 14009KT 01/01 A2997 RMK A01 T00050005  RH  100%=      5-min Rain = 0
KUM1 221538Z 13009KT 01/01 A2997 RMK A01 T00050005  RH  100%=      5-min Rain = 0
KUM1 221539Z 13008KT 01/01 A2997 RMK A01 T00060005  RH  100%=      5-min Rain = 0
KUM1 221540Z 13009KT 01/01 A2997 RMK A01 T00060005  RH  100%=      5-min Rain = 0
KUM1 221541Z 13009KT 01/01 A2997 RMK A01 T00070006  RH  100%=      5-min Rain = 0
KUM1 221542Z 14009KT 01/01 A2997 RMK A01 T00070007  RH  100%=      5-min Rain = 0
KUM1 221543Z 14009KT 01/01 A2997 RMK A01 T00070007  RH  100%=      5-min Rain = 0
KUM1 221544Z 14009KT 01/01 A2997 RMK A01 T00070007  RH  100%=      5-min Rain = 0
KUM1 221545Z 14009KT 01/01 A2997 RMK A01 T00070006  RH  100%=      5-min Rain = 0
KUM1 221546Z 15009KT 01/01 A2997 RMK A01 T00080008  RH  100%=      5-min Rain = 0
KUM1 221547Z 14008KT 01/01 A2997 RMK A01 T00090009  RH  100%=      5-min Rain = 0
KUM1 221548Z 14009KT 01/01 A2997 RMK A01 T00100009  RH  100%=      5-min Rain = 0
KUM1 221549Z 13009KT 01/01 A2997 RMK A01 T00090009  RH  100%=      5-min Rain = 0
KUM1 221550Z 13008KT 01/01 A2997 RMK A01 T00090008  RH  100%=      5-min Rain = 0
KUM1 221551Z 14008KT 01/01 A2997 RMK A01 T00090008  RH  100%=      5-min Rain = 0
KUM1 221552Z 14010KT 01/01 A2997 RMK A01 T00100009  RH  100%=      5-min Rain = 0
KUM1 221553Z 14009KT 01/01 A2997 RMK A01 T00090009  RH  100%=      5-min Rain = 0
KUM1 221554Z 14009KT 01/01 A2997 RMK A01 T00090009  RH  100%=      5-min Rain = 0
KUM1 221555Z 14010KT 01/01 A2996 RMK A01 T00100009  RH  100%=      5-min Rain = 0
KUM1 221556Z 14010KT 01/01 A2996 RMK A01 T00100009  RH  100%=      5-min Rain = 0
KUM1 221557Z 14010KT 01/01 A2996 RMK A01 T00100009  RH  100%=      5-min Rain = 0
KUM1 221558Z 14008KT 01/01 A2997 RMK A01 T00100009  RH  100%=      5-min Rain = 0
KUM1 221559Z 15008KT 01/01 A2997 RMK A01 T00110010  RH  100%=      5-min Rain = 0
KUM1 221600Z 15007KT 01/01 A2997 RMK A01 T00120011  RH  100%=      5-min Rain = 0
KUM1 221601Z 15011KT 01/01 A2997 RMK A01 T00120011  RH  100%=      5-min Rain = 0
KUM1 221602Z 15010KT 01/01 A2997 RMK A01 T00120011  RH  100%=      5-min Rain = 0
KUM1 221603Z 15010KT 01/01 A2997 RMK A01 T00120011  RH  100%=      5-min Rain = 0
KUM1 221604Z 15012KT 01/01 A2997 RMK A01 T00120012  RH  100%=      5-min Rain = 0
KUM1 221605Z 14011KT 01/01 A2997 RMK A01 T00120011  RH  100%=      5-min Rain = 0
KUM1 221606Z 15009KT 01/01 A2997 RMK A01 T00120011  RH  100%=      5-min Rain = 0
KUM1 221607Z 15009KT 01/01 A2997 RMK A01 T00120011  RH  100%=      5-min Rain = 0
KUM1 221608Z 15011KT 01/01 A2997 RMK A01 T00130012  RH  100%=      5-min Rain = 0
KUM1 221609Z 15011KT 01/01 A2997 RMK A01 T00120011  RH  100%=      5-min Rain = 0
KUM1 221610Z 15010KT 01/01 A2996 RMK A01 T00120011  RH  100%=      5-min Rain = 0
KUM1 221611Z 15010KT 01/01 A2996 RMK A01 T00120011  RH  100%=      5-min Rain = 0
KUM1 221612Z 14010KT 01/01 A2996 RMK A01 T00130012  RH  100%=      5-min Rain = 0
KUM1 221613Z 14012KT 01/01 A2996 RMK A01 T00140014  RH  100%=      5-min Rain = 0
KUM1 221614Z 15011KT 01/01 A2996 RMK A01 T00140014  RH  100%=      5-min Rain = 0
KUM1 221615Z 15010KT 01/01 A2997 RMK A01 T00140014  RH  100%=      5-min Rain = 0
KUM1 221616Z 15011KT 01/01 A2997 RMK A01 T00140013  RH  100%=      5-min Rain = 0
KUM1 221617Z 14009KT 01/01 A2997 RMK A01 T00140014  RH  100%=      5-min Rain = 0
KUM1 221618Z 14010KT 02/01 A2996 RMK A01 T00150014  RH  100%=      5-min Rain = 0
KUM1 221619Z 13011KT 02/01 A2996 RMK A01 T00150014  RH  100%=      5-min Rain = 0
KUM1 221620Z 13011KT 01/01 A2996 RMK A01 T00140013  RH  099%=      5-min Rain = 0
KUM1 221621Z 13012KT 01/01 A2996 RMK A01 T00130012  RH  099%=      5-min Rain = 0
KUM1 221622Z 13010KT 01/01 A2996 RMK A01 T00140013  RH  100%=      5-min Rain = 0
KUM1 221623Z 14012KT 02/02 A2996 RMK A01 T00160015  RH  100%=      5-min Rain = 0
KUM1 221624Z 15011KT 02/02 A2996 RMK A01 T00160015  RH  100%=      5-min Rain = 0
KUM1 221625Z 15011KT 02/02 A2996 RMK A01 T00160015  RH  099%=      5-min Rain = 0
KUM1 221626Z 15011KT 02/02 A2996 RMK A01 T00170016  RH  100%=      5-min Rain = 0
KUM1 221627Z 14011KT 02/02 A2996 RMK A01 T00160016  RH  099%=      5-min Rain = 0
KUM1 221628Z 14011KT 02/02 A2995 RMK A01 T00170016  RH  099%=      5-min Rain = 0
KUM1 221629Z 14011KT 02/02 A2995 RMK A01 T00180017  RH  100%=      5-min Rain = 0
KUM1 221630Z 14012KT 02/02 A2995 RMK A01 T00180017  RH  099%=      5-min Rain = 0
KUM1 221631Z 15013KT 02/02 A2995 RMK A01 T00170017  RH  099%=      5-min Rain = 0
KUM1 221632Z 15013KT 02/02 A2995 RMK A01 T00170016  RH  099%=      5-min Rain = 0
KUM1 221633Z 15012KT 02/02 A2995 RMK A01 T00170016  RH  099%=      5-min Rain = 0
KUM1 221634Z 15012KT 02/02 A2995 RMK A01 T00180017  RH  099%=      5-min Rain = 0
KUM1 221635Z 14012KT 02/02 A2995 RMK A01 T00180018  RH  099%=      5-min Rain = 0
KUM1 221636Z 14011KT 02/02 A2995 RMK A01 T00200019  RH  099%=      5-min Rain = 0
KUM1 221637Z 14011KT 02/02 A2995 RMK A01 T00190018  RH  099%=      5-min Rain = 0
KUM1 221638Z 15010KT 02/02 A2995 RMK A01 T00190018  RH  099%=      5-min Rain = 0
KUM1 221639Z 15010KT 02/02 A2995 RMK A01 T00210020  RH  099%=      5-min Rain = 0
KUM1 221640Z 14011KT 02/02 A2995 RMK A01 T00220021  RH  099%=      5-min Rain = 0
KUM1 221641Z 14011KT 02/02 A2995 RMK A01 T00210020  RH  099%=      5-min Rain = 0
KUM1 221642Z 14011KT 02/02 A2995 RMK A01 T00210020  RH  099%=      5-min Rain = 0
KUM1 221643Z 15010KT 02/02 A2995 RMK A01 T00220021  RH  099%=      5-min Rain = 0
KUM1 221644Z 16010KT 02/02 A2995 RMK A01 T00220021  RH  099%=      5-min Rain = 0
KUM1 221645Z 16010KT 02/02 A2995 RMK A01 T00210020  RH  099%=      5-min Rain = 0
KUM1 221646Z 15010KT 02/02 A2995 RMK A01 T00210020  RH  099%=      5-min Rain = 0
KUM1 221647Z 16011KT 02/02 A2995 RMK A01 T00230022  RH  099%=      5-min Rain = 0
KUM1 221648Z 15011KT 02/02 A2995 RMK A01 T00230022  RH  099%=      5-min Rain = 0
KUM1 221649Z 16011KT 02/02 A2995 RMK A01 T00230022  RH  099%=      5-min Rain = 0
KUM1 221650Z 16012KT 02/02 A2995 RMK A01 T00220021  RH  099%=      5-min Rain = 0
KUM1 221651Z 16011KT 02/02 A2995 RMK A01 T00220021  RH  099%=      5-min Rain = 0
KUM1 221652Z 16012KT 02/02 A2995 RMK A01 T00220021  RH  099%=      5-min Rain = 0
KUM1 221653Z 16011KT 02/02 A2995 RMK A01 T00220020  RH  099%=      5-min Rain = 0
KUM1 221654Z 15010KT 02/02 A2995 RMK A01 T00220020  RH  099%=      5-min Rain = 0
KUM1 221655Z 15010KT 02/02 A2995 RMK A01 T00230021  RH  099%=      5-min Rain = 0
KUM1 221656Z 16010KT 02/02 A2995 RMK A01 T00230022  RH  099%=      5-min Rain = 0
KUM1 221657Z 14011KT 02/02 A2995 RMK A01 T00240022  RH  099%=      5-min Rain = 0
KUM1 221658Z 15010KT 03/02 A2994 RMK A01 T00250024  RH  099%=      5-min Rain = 0
KUM1 221659Z 16010KT 03/03 A2994 RMK A01 T00270026  RH  099%=      5-min Rain = 0
KUM1 221700Z 15010KT 03/03 A2994 RMK A01 T00280026  RH  099%=      5-min Rain = 0
KUM1 221701Z 15011KT 03/02 A2994 RMK A01 T00260024  RH  099%=      5-min Rain = 0
KUM1 221702Z 15011KT 03/02 A2994 RMK A01 T00260024  RH  099%=      5-min Rain = 0
KUM1 221703Z 16011KT 03/02 A2994 RMK A01 T00260023  RH  098%=      5-min Rain = 0
KUM1 221704Z 15009KT 03/02 A2994 RMK A01 T00260024  RH  098%=      5-min Rain = 0
KUM1 221705Z 14010KT 03/03 A2994 RMK A01 T00290027  RH  099%=      5-min Rain = 0
KUM1 221706Z 14011KT 03/03 A2994 RMK A01 T00280026  RH  098%=      5-min Rain = 0
KUM1 221707Z 14012KT 03/03 A2994 RMK A01 T00290026  RH  098%=      5-min Rain = 0
KUM1 221708Z 15011KT 03/03 A2994 RMK A01 T00280025  RH  098%=      5-min Rain = 0
KUM1 221709Z 16011KT 03/03 A2994 RMK A01 T00280025  RH  098%=      5-min Rain = 0
KUM1 221710Z 16010KT 03/03 A2994 RMK A01 T00280025  RH  098%=      5-min Rain = 0
KUM1 221711Z 16011KT 03/03 A2994 RMK A01 T00280025  RH  098%=      5-min Rain = 0
KUM1 221712Z 16010KT 03/03 A2994 RMK A01 T00300026  RH  098%=      5-min Rain = 0
KUM1 221713Z 17011KT 03/03 A2994 RMK A01 T00310027  RH  097%=      5-min Rain = 0
KUM1 221714Z 16010KT 03/03 A2994 RMK A01 T00310027  RH  097%=      5-min Rain = 0
KUM1 221715Z 16011KT 03/03 A2994 RMK A01 T00310026  RH  097%=      5-min Rain = 0
KUM1 221716Z 14010KT 03/03 A2994 RMK A01 T00310026  RH  097%=      5-min Rain = 0
KUM1 221717Z 15010KT 03/03 A2994 RMK A01 T00320027  RH  096%=      5-min Rain = 0
KUM1 221718Z 14011KT 03/03 A2994 RMK A01 T00330028  RH  096%=      5-min Rain = 0
KUM1 221719Z 15011KT 03/03 A2994 RMK A01 T00340028  RH  096%=      5-min Rain = 0
KUM1 221720Z 15011KT 03/03 A2994 RMK A01 T00340027  RH  096%=      5-min Rain = 0
KUM1 221721Z 15011KT 03/03 A2994 RMK A01 T00330026  RH  095%=      5-min Rain = 0
KUM1 221722Z 17011KT 03/03 A2994 RMK A01 T00330026  RH  095%=      5-min Rain = 0
KUM1 221723Z 17011KT 03/03 A2993 RMK A01 T00340026  RH  095%=      5-min Rain = 0
KUM1 221724Z 15012KT 04/03 A2993 RMK A01 T00350027  RH  095%=      5-min Rain = 0
KUM1 221725Z 15012KT 04/03 A2993 RMK A01 T00350027  RH  094%=      5-min Rain = 0
KUM1 221726Z 15013KT 04/03 A2993 RMK A01 T00360027  RH  094%=      5-min Rain = 0
KUM1 221727Z 15013KT 04/03 A2993 RMK A01 T00370027  RH  093%=      5-min Rain = 0
KUM1 221728Z 15011KT 04/03 A2993 RMK A01 T00370027  RH  093%=      5-min Rain = 0
KUM1 221729Z 16011KT 04/03 A2993 RMK A01 T00370026  RH  092%=      5-min Rain = 0
KUM1 221730Z 16010KT 04/03 A2993 RMK A01 T00370026  RH  092%=      5-min Rain = 0
KUM1 221731Z 16012KT 04/03 A2993 RMK A01 T00390027  RH  092%=      5-min Rain = 0
KUM1 221732Z 16011KT 04/03 A2993 RMK A01 T00380026  RH  092%=      5-min Rain = 0
KUM1 221733Z 17011KT 04/03 A2993 RMK A01 T00390027  RH  092%=      5-min Rain = 0
KUM1 221734Z 16009KT 04/03 A2993 RMK A01 T00410027  RH  091%=      5-min Rain = 0
KUM1 221735Z 16013KT 04/03 A2993 RMK A01 T00410027  RH  090%=      5-min Rain = 0
KUM1 221736Z 15013KT 04/03 A2993 RMK A01 T00410026  RH  090%=      5-min Rain = 0
KUM1 221737Z 15012KT 04/03 A2993 RMK A01 T00420026  RH  090%=      5-min Rain = 0
KUM1 221738Z 16013KT 04/03 A2993 RMK A01 T00430027  RH  089%=      5-min Rain = 0
KUM1 221739Z 16012KT 04/03 A2993 RMK A01 T00440026  RH  088%=      5-min Rain = 0
KUM1 221740Z 16010KT 04/02 A2993 RMK A01 T00430024  RH  088%=      5-min Rain = 0
KUM1 221741Z 16012KT 04/03 A2993 RMK A01 T00440026  RH  088%=      5-min Rain = 0
KUM1 221742Z 16011KT 04/02 A2993 RMK A01 T00440024  RH  087%=      5-min Rain = 0
KUM1 221743Z 16011KT 04/03 A2992 RMK A01 T00440025  RH  088%=      5-min Rain = 0
KUM1 221744Z 18012KT 04/03 A2992 RMK A01 T00440025  RH  087%=      5-min Rain = 0
KUM1 221745Z 18011KT 04/03 A2992 RMK A01 T00440025  RH  087%=      5-min Rain = 0
KUM1 221746Z 17012KT 05/03 A2992 RMK A01 T00470028  RH  087%=      5-min Rain = 0
KUM1 221747Z 16013KT 05/03 A2992 RMK A01 T00480027  RH  086%=      5-min Rain = 0
KUM1 221748Z 17013KT 05/02 A2992 RMK A01 T00470024  RH  085%=      5-min Rain = 0
KUM1 221749Z 18010KT 05/02 A2992 RMK A01 T00450022  RH  085%=      5-min Rain = 0
KUM1 221750Z 17012KT 05/03 A2992 RMK A01 T00460025  RH  087%=      5-min Rain = 0
KUM1 221751Z 17010KT 05/03 A2992 RMK A01 T00470025  RH  086%=      5-min Rain = 0
KUM1 221752Z 17012KT 05/03 A2992 RMK A01 T00470025  RH  086%=      5-min Rain = 0
KUM1 221753Z 17014KT 05/03 A2992 RMK A01 T00470025  RH  085%=      5-min Rain = 0
KUM1 221754Z 17014KT 05/02 A2992 RMK A01 T00480024  RH  085%=      5-min Rain = 0
KUM1 221755Z 16013KT 05/02 A2992 RMK A01 T00480023  RH  084%=      5-min Rain = 0
KUM1 221756Z 17011KT 05/02 A2992 RMK A01 T00480022  RH  083%=      5-min Rain = 0
KUM1 221757Z 17011KT 05/03 A2992 RMK A01 T00500026  RH  085%=      5-min Rain = 0
KUM1 221758Z 17012KT 05/03 A2992 RMK A01 T00520025  RH  083%=      5-min Rain = 0
KUM1 221759Z 17012KT 05/02 A2992 RMK A01 T00510024  RH  083%=      5-min Rain = 0
KUM1 221800Z 17014KT 05/02 A2992 RMK A01 T00510024  RH  083%=      5-min Rain = 0
KUM1 221801Z 17013KT 05/02 A2992 RMK A01 T00520023  RH  082%=      5-min Rain = 0
KUM1 221802Z 18013KT 05/02 A2992 RMK A01 T00510022  RH  082%=      5-min Rain = 0
KUM1 221803Z 18013KT 05/02 A2992 RMK A01 T00500022  RH  082%=      5-min Rain = 0
KUM1 221804Z 17011KT 05/02 A2992 RMK A01 T00510023  RH  082%=      5-min Rain = 0
KUM1 221805Z 16012KT 05/02 A2992 RMK A01 T00520024  RH  082%=      5-min Rain = 0
KUM1 221806Z 17012KT 05/02 A2992 RMK A01 T00520024  RH  082%=      5-min Rain = 0
KUM1 221807Z 17012KT 05/02 A2992 RMK A01 T00530023  RH  081%=      5-min Rain = 0
KUM1 221808Z 16010KT 05/02 A2992 RMK A01 T00520022  RH  081%=      5-min Rain = 0
KUM1 221809Z 17014KT 05/02 A2992 RMK A01 T00520024  RH  082%=      5-min Rain = 0
KUM1 221810Z 18012KT 05/02 A2992 RMK A01 T00530024  RH  081%=      5-min Rain = 0
KUM1 221811Z 17012KT 05/02 A2992 RMK A01 T00540024  RH  081%=      5-min Rain = 0
KUM1 221812Z 18010KT 05/02 A2992 RMK A01 T00540024  RH  081%=      5-min Rain = 0
KUM1 221813Z 20011KT 06/03 A2992 RMK A01 T00550025  RH  081%=      5-min Rain = 0
KUM1 221814Z 19012G18KT 06/02 A2992 RMK A01 T00560024  RH  080%=      5-min Rain = 0
KUM1 221815Z 18012KT 06/02 A2992 RMK A01 T00560024  RH  080%=      5-min Rain = 0
KUM1 221816Z 18012KT 05/02 A2992 RMK A01 T00540022  RH  080%=      5-min Rain = 0
KUM1 221817Z 18013KT 05/02 A2992 RMK A01 T00540024  RH  081%=      5-min Rain = 0
KUM1 221818Z 18013KT 06/02 A2992 RMK A01 T00550024  RH  080%=      5-min Rain = 0
KUM1 221819Z 18013KT 05/02 A2992 RMK A01 T00540023  RH  080%=      5-min Rain = 0
KUM1 221820Z 18011KT 05/02 A2992 RMK A01 T00540022  RH  080%=      5-min Rain = 0
KUM1 221821Z 17009KT 05/02 A2992 RMK A01 T00530023  RH  081%=      5-min Rain = 0
KUM1 221822Z 17012KT 06/03 A2991 RMK A01 T00560027  RH  082%=      5-min Rain = 0
KUM1 221823Z 17010KT 06/03 A2992 RMK A01 T00570026  RH  080%=      5-min Rain = 0
KUM1 221824Z 18009KT 06/03 A2992 RMK A01 T00570025  RH  080%=      5-min Rain = 0
KUM1 221825Z 19009KT 06/03 A2992 RMK A01 T00560025  RH  081%=      5-min Rain = 0
KUM1 221826Z 18011KT 06/03 A2991 RMK A01 T00590027  RH  080%=      5-min Rain = 0
KUM1 221827Z 18010KT 06/03 A2991 RMK A01 T00590025  RH  079%=      5-min Rain = 0
KUM1 221828Z 17010KT 06/02 A2991 RMK A01 T00570023  RH  079%=      5-min Rain = 0
KUM1 221829Z 17011KT 06/02 A2991 RMK A01 T00570024  RH  079%=      5-min Rain = 0
KUM1 221830Z 16012KT 06/02 A2991 RMK A01 T00570024  RH  080%=      5-min Rain = 0
KUM1 221831Z 16012KT 06/03 A2991 RMK A01 T00570025  RH  080%=      5-min Rain = 0
KUM1 221832Z 16012KT 06/03 A2991 RMK A01 T00580025  RH  080%=      5-min Rain = 0
KUM1 221833Z 16010KT 06/02 A2991 RMK A01 T00570023  RH  079%=      5-min Rain = 0
KUM1 221834Z 18012KT 06/02 A2991 RMK A01 T00570024  RH  080%=      5-min Rain = 0
KUM1 221835Z 18010KT 06/02 A2991 RMK A01 T00580024  RH  079%=      5-min Rain = 0
KUM1 221836Z 18009KT 06/02 A2991 RMK A01 T00570023  RH  079%=      5-min Rain = 0
KUM1 221837Z 19010KT 06/02 A2991 RMK A01 T00560023  RH  079%=      5-min Rain = 0
KUM1 221838Z 19009KT 06/02 A2991 RMK A01 T00570024  RH  079%=      5-min Rain = 0
KUM1 221839Z 17011KT 06/03 A2991 RMK A01 T00590026  RH  079%=      5-min Rain = 0
KUM1 221840Z 17009KT 06/02 A2991 RMK A01 T00590024  RH  078%=      5-min Rain = 0
KUM1 221841Z 17009KT 06/03 A2991 RMK A01 T00590026  RH  079%=      5-min Rain = 0
KUM1 221842Z 17011KT 06/03 A299 RMK A01 T00600026  RH  079%=      5-min Rain = 0
KUM1 221843Z 17011KT 06/03 A299 RMK A01 T00610027  RH  079%=      5-min Rain = 0
KUM1 221844Z 19010KT 06/03 A299 RMK A01 T00620026  RH  078%=      5-min Rain = 0
KUM1 221845Z 16011KT 06/03 A299 RMK A01 T00610026  RH  078%=      5-min Rain = 0
KUM1 221846Z 16011KT 06/03 A299 RMK A01 T00620026  RH  078%=      5-min Rain = 0
KUM1 221847Z 16011KT 06/03 A299 RMK A01 T00610025  RH  078%=      5-min Rain = 0
KUM1 221848Z 17010KT 06/03 A299 RMK A01 T00610026  RH  078%=      5-min Rain = 0
KUM1 221849Z 17010KT 06/03 A299 RMK A01 T00630027  RH  078%=      5-min Rain = 0
KUM1 221850Z 18010KT 06/03 A299 RMK A01 T00630025  RH  077%=      5-min Rain = 0
KUM1 221851Z 18010KT 06/03 A299 RMK A01 T00640026  RH  077%=      5-min Rain = 0
KUM1 221852Z 18010KT 06/03 A299 RMK A01 T00640025  RH  076%=      5-min Rain = 0
KUM1 221853Z 18012KT 06/02 A2989 RMK A01 T00620023  RH  076%=      5-min Rain = 0
KUM1 221854Z 18012KT 06/03 A2989 RMK A01 T00620025  RH  077%=      5-min Rain = 0
KUM1 221855Z 18008KT 06/03 A2989 RMK A01 T00630025  RH  077%=      5-min Rain = 0
KUM1 221856Z 17008KT 06/03 A2989 RMK A01 T00630025  RH  077%=      5-min Rain = 0
KUM1 221857Z 17008KT 07/03 A2989 RMK A01 T00650029  RH  078%=      5-min Rain = 0
KUM1 221858Z 16008G13KT 07/03 A2989 RMK A01 T00670029  RH  077%=      5-min Rain = 0
KUM1 221859Z 17013KT 07/03 A2989 RMK A01 T00710031  RH  076%=      5-min Rain = 0
KUM1 221900Z 17012KT 07/03 A2989 RMK A01 T00730029  RH  074%=      5-min Rain = 0
KUM1 221901Z 18009KT 07/03 A2989 RMK A01 T00720027  RH  073%=      5-min Rain = 0
KUM1 221902Z 18008KT 07/03 A2989 RMK A01 T00700025  RH  073%=      5-min Rain = 0
KUM1 221903Z 17010KT 07/03 A2989 RMK A01 T00690025  RH  074%=      5-min Rain = 0
KUM1 221904Z 16009KT 07/03 A2989 RMK A01 T00680026  RH  075%=      5-min Rain = 0
KUM1 221905Z 17010KT 07/03 A2988 RMK A01 T00700029  RH  075%=      5-min Rain = 0
KUM1 221906Z 18012KT 07/03 A2988 RMK A01 T00730029  RH  074%=      5-min Rain = 0
KUM1 221907Z 19010KT 08/03 A2988 RMK A01 T00750029  RH  073%=      5-min Rain = 0
KUM1 221908Z 18011KT 07/03 A2988 RMK A01 T00740027  RH  072%=      5-min Rain = 0
KUM1 221909Z 19007KT 07/03 A2988 RMK A01 T00730025  RH  072%=      5-min Rain = 0
KUM1 221910Z 18008KT 07/03 A2988 RMK A01 T00720026  RH  073%=      5-min Rain = 0
KUM1 221911Z 18010KT 08/04 A2988 RMK A01 T00800036  RH  074%=      5-min Rain = 0
KUM1 221912Z 19010KT 08/03 A2988 RMK A01 T00830031  RH  070%=      5-min Rain = 0
KUM1 221913Z 19009KT 08/02 A2988 RMK A01 T00780024  RH  069%=      5-min Rain = 0
KUM1 221914Z 17012KT 07/02 A2988 RMK A01 T00740024  RH  070%=      5-min Rain = 0
KUM1 221915Z 17012KT 07/03 A2988 RMK A01 T00740027  RH  072%=      5-min Rain = 0
KUM1 221916Z 16011KT 08/03 A2988 RMK A01 T00750028  RH  072%=      5-min Rain = 0
KUM1 221917Z 15010KT 07/03 A2988 RMK A01 T00730026  RH  072%=      5-min Rain = 0
KUM1 221918Z 15008KT 07/02 A2988 RMK A01 T00710024  RH  072%=      5-min Rain = 0
KUM1 221919Z 15010KT 07/03 A2988 RMK A01 T00720027  RH  073%=      5-min Rain = 0
KUM1 221920Z 16008KT 08/03 A2987 RMK A01 T00750028  RH  072%=      5-min Rain = 0
KUM1 221921Z 18010KT 08/03 A2987 RMK A01 T00750025  RH  071%=      5-min Rain = 0
KUM1 221922Z 16010KT 07/03 A2987 RMK A01 T00740026  RH  071%=      5-min Rain = 0
KUM1 221923Z 16009KT 08/03 A2987 RMK A01 T00760029  RH  072%=      5-min Rain = 0
KUM1 221924Z 18010KT 08/03 A2987 RMK A01 T00810033  RH  072%=      5-min Rain = 0
KUM1 221925Z 19011KT 08/03 A2987 RMK A01 T00830029  RH  069%=      5-min Rain = 0
KUM1 221926Z 17008KT 08/03 A2987 RMK A01 T00830029  RH  069%=      5-min Rain = 0
KUM1 221927Z 18012KT 08/03 A2987 RMK A01 T00830029  RH  069%=      5-min Rain = 0
KUM1 221928Z 18010KT 08/03 A2987 RMK A01 T00830028  RH  068%=      5-min Rain = 0
KUM1 221929Z 19010KT 08/03 A2987 RMK A01 T00810027  RH  069%=      5-min Rain = 0
KUM1 221930Z 18008KT 08/03 A2987 RMK A01 T00810028  RH  069%=      5-min Rain = 0
KUM1 221931Z 17008KT 08/03 A2987 RMK A01 T00810026  RH  068%=      5-min Rain = 0
KUM1 221932Z 18009KT 08/03 A2987 RMK A01 T00820028  RH  069%=      5-min Rain = 0
KUM1 221933Z 18009KT 08/03 A2986 RMK A01 T00830026  RH  068%=      5-min Rain = 0
KUM1 221934Z 17008KT 08/03 A2986 RMK A01 T00810025  RH  068%=      5-min Rain = 0
KUM1 221935Z 17009KT 08/03 A2986 RMK A01 T00810027  RH  069%=      5-min Rain = 0
KUM1 221936Z 18009KT 08/03 A2986 RMK A01 T00840029  RH  068%=      5-min Rain = 0
KUM1 221937Z 15009KT 09/03 A2986 RMK A01 T00850029  RH  068%=      5-min Rain = 0
KUM1 221938Z 15009KT 09/03 A2986 RMK A01 T00850029  RH  068%=      5-min Rain = 0
KUM1 221939Z 13007KT 09/03 A2986 RMK A01 T00850029  RH  068%=      5-min Rain = 0
KUM1 221940Z 15007KT 08/03 A2986 RMK A01 T00830028  RH  068%=      5-min Rain = 0
KUM1 221941Z 18006KT 09/03 A2986 RMK A01 T00850031  RH  069%=      5-min Rain = 0
KUM1 221942Z 18008KT 09/03 A2986 RMK A01 T00880032  RH  068%=      5-min Rain = 0
KUM1 221943Z 18009KT 09/03 A2986 RMK A01 T00880029  RH  066%=      5-min Rain = 0
KUM1 221944Z 17009KT 09/03 A2986 RMK A01 T00870028  RH  066%=      5-min Rain = 0
KUM1 221945Z 15011KT 09/03 A2985 RMK A01 T00860028  RH  067%=      5-min Rain = 0
KUM1 221946Z 15011KT 09/03 A2985 RMK A01 T00880029  RH  067%=      5-min Rain = 0
KUM1 221947Z 14008KT 09/03 A2985 RMK A01 T00880028  RH  066%=      5-min Rain = 0
KUM1 221948Z 14006KT 09/03 A2985 RMK A01 T00880027  RH  066%=      5-min Rain = 0
KUM1 221949Z 18010KT 09/03 A2985 RMK A01 T00880028  RH  066%=      5-min Rain = 0
KUM1 221950Z 18010KT 09/03 A2985 RMK A01 T00900030  RH  066%=      5-min Rain = 0
KUM1 221951Z 18010KT 09/03 A2985 RMK A01 T00930030  RH  065%=      5-min Rain = 0
KUM1 221952Z 16009KT 09/03 A2985 RMK A01 T00900026  RH  064%=      5-min Rain = 0
KUM1 221953Z 18010KT 09/03 A2985 RMK A01 T00890027  RH  065%=      5-min Rain = 0
KUM1 221954Z 17011KT 09/03 A2984 RMK A01 T00900028  RH  065%=      5-min Rain = 0
KUM1 221955Z 15009KT 09/03 A2984 RMK A01 T00920029  RH  065%=      5-min Rain = 0
KUM1 221956Z 15010KT 09/03 A2984 RMK A01 T00940029  RH  064%=      5-min Rain = 0
KUM1 221957Z 16007KT 09/03 A2984 RMK A01 T00940027  RH  063%=      5-min Rain = 0
KUM1 221958Z 15011KT 09/03 A2984 RMK A01 T00940028  RH  064%=      5-min Rain = 0
KUM1 221959Z 16011KT 10/03 A2984 RMK A01 T00970030  RH  063%=      5-min Rain = 0
KUM1 222000Z 16010KT 10/03 A2984 RMK A01 T00980029  RH  062%=      5-min Rain = 0
KUM1 222001Z 18009KT 10/03 A2984 RMK A01 T00990029  RH  062%=      5-min Rain = 0
KUM1 222002Z 16009KT 10/03 A2984 RMK A01 T00970027  RH  062%=      5-min Rain = 0
KUM1 222003Z 17011KT 10/03 A2984 RMK A01 T00980028  RH  062%=      5-min Rain = 0
KUM1 222004Z 16010KT 10/03 A2983 RMK A01 T00970028  RH  062%=      5-min Rain = 0
KUM1 222005Z 15008KT 10/03 A2983 RMK A01 T00980027  RH  061%=      5-min Rain = 0
KUM1 222006Z 15011KT 10/03 A2983 RMK A01 T00970027  RH  062%=      5-min Rain = 0
KUM1 222007Z 15009KT 10/03 A2983 RMK A01 T00970028  RH  062%=      5-min Rain = 0
KUM1 222008Z 15006KT 10/03 A2983 RMK A01 T00980028  RH  061%=      5-min Rain = 0
KUM1 222009Z 15006KT 10/03 A2983 RMK A01 T00970027  RH  062%=      5-min Rain = 0
KUM1 222010Z 17011KT 10/03 A2983 RMK A01 T00990029  RH  062%=      5-min Rain = 0
KUM1 222011Z 18012KT 10/03 A2983 RMK A01 T01010025  RH  059%=      5-min Rain = 0
KUM1 222012Z 18011KT 10/02 A2983 RMK A01 T01020022  RH  058%=      5-min Rain = 0
KUM1 222013Z 17011KT 10/02 A2983 RMK A01 T01020024  RH  058%=      5-min Rain = 0
KUM1 222014Z 17011KT 10/02 A2983 RMK A01 T01020024  RH  058%=      5-min Rain = 0
KUM1 222015Z 18010KT 10/03 A2983 RMK A01 T01020025  RH  059%=      5-min Rain = 0
KUM1 222016Z 18008KT 10/03 A2983 RMK A01 T01040026  RH  059%=      5-min Rain = 0
KUM1 222017Z 16010KT 10/03 A2983 RMK A01 T01040026  RH  059%=      5-min Rain = 0
KUM1 222018Z 15008KT 10/03 A2983 RMK A01 T01040026  RH  058%=      5-min Rain = 0
KUM1 222019Z 15008KT 11/03 A2983 RMK A01 T01050028  RH  059%=      5-min Rain = 0
KUM1 222020Z 18011KT 11/03 A2982 RMK A01 T01060029  RH  059%=      5-min Rain = 0
KUM1 222021Z 19013KT 11/03 A2982 RMK A01 T01070026  RH  057%=      5-min Rain = 0
KUM1 222022Z 18009KT 11/03 A2982 RMK A01 T01070027  RH  058%=      5-min Rain = 0
KUM1 222023Z 18007KT 11/03 A2982 RMK A01 T01080029  RH  058%=      5-min Rain = 0
KUM1 222024Z 15007KT 11/03 A2982 RMK A01 T01080028  RH  058%=      5-min Rain = 0
KUM1 222025Z 15007KT 11/03 A2982 RMK A01 T01060026  RH  058%=      5-min Rain = 0
KUM1 222026Z 15012KT 10/03 A2982 RMK A01 T01030026  RH  059%=      5-min Rain = 0
KUM1 222027Z 14010KT 11/03 A2982 RMK A01 T01070028  RH  058%=      5-min Rain = 0
KUM1 222028Z 15009KT 11/03 A2982 RMK A01 T01090026  RH  057%=      5-min Rain = 0
KUM1 222029Z 16010KT 11/03 A2982 RMK A01 T01090027  RH  057%=      5-min Rain = 0
KUM1 222030Z 15009KT 11/03 A2982 RMK A01 T01090027  RH  057%=      5-min Rain = 0
KUM1 222031Z 16008KT 11/03 A2982 RMK A01 T01080026  RH  057%=      5-min Rain = 0
KUM1 222032Z 17012KT 11/03 A2982 RMK A01 T01080028  RH  058%=      5-min Rain = 0
KUM1 222033Z 18009KT 11/03 A2982 RMK A01 T01090026  RH  056%=      5-min Rain = 0
KUM1 222034Z 17009KT 11/03 A2982 RMK A01 T01100025  RH  056%=      5-min Rain = 0
KUM1 222035Z 17007KT 11/03 A2982 RMK A01 T01100025  RH  056%=      5-min Rain = 0
KUM1 222036Z 18008KT 11/03 A2982 RMK A01 T01130029  RH  056%=      5-min Rain = 0
KUM1 222037Z 16007KT 12/03 A2982 RMK A01 T01190031  RH  055%=      5-min Rain = 0
KUM1 222038Z 15011KT 12/03 A2982 RMK A01 T01190028  RH  053%=      5-min Rain = 0
KUM1 222039Z 15011KT 12/02 A2982 RMK A01 T01180023  RH  052%=      5-min Rain = 0
KUM1 222040Z 15011KT 12/02 A2982 RMK A01 T01170022  RH  052%=      5-min Rain = 0
KUM1 222041Z 16008KT 12/02 A2982 RMK A01 T01160019  RH  052%=      5-min Rain = 0
KUM1 222042Z 16008KT 11/02 A2982 RMK A01 T01130020  RH  053%=      5-min Rain = 0
KUM1 222043Z 15005KT 11/02 A2982 RMK A01 T01110021  RH  054%=      5-min Rain = 0
KUM1 222044Z 15006G11KT 11/02 A2982 RMK A01 T01090022  RH  055%=      5-min Rain = 0
KUM1 222045Z 15009KT 11/03 A2982 RMK A01 T01110025  RH  055%=      5-min Rain = 0
KUM1 222046Z 14009KT 11/02 A2981 RMK A01 T01130023  RH  054%=      5-min Rain = 0
KUM1 222047Z 15009G14KT 12/02 A2981 RMK A01 T01150021  RH  053%=      5-min Rain = 0
KUM1 222048Z 18010KT 12/02 A2981 RMK A01 T01160024  RH  053%=      5-min Rain = 0
KUM1 222049Z 17008KT 12/02 A2981 RMK A01 T01160024  RH  053%=      5-min Rain = 0
KUM1 222050Z 14009KT 12/02 A2981 RMK A01 T01150024  RH  054%=      5-min Rain = 0
KUM1 222051Z 13008KT 12/02 A2981 RMK A01 T01160024  RH  053%=      5-min Rain = 0
KUM1 222052Z 13006KT 11/02 A2981 RMK A01 T01130022  RH  054%=      5-min Rain = 0
KUM1 222053Z 14011KT 11/03 A2981 RMK A01 T01120025  RH  055%=      5-min Rain = 0
KUM1 222054Z 15010KT 12/03 A2981 RMK A01 T01160025  RH  054%=      5-min Rain = 0
KUM1 222055Z 15007KT 12/03 A2981 RMK A01 T01190027  RH  053%=      5-min Rain = 0
KUM1 222056Z 16007KT 12/03 A2981 RMK A01 T01200026  RH  052%=      5-min Rain = 0
KUM1 222057Z 16013KT 12/02 A2981 RMK A01 T01190024  RH  052%=      5-min Rain = 0
KUM1 222058Z 16008KT 12/02 A2981 RMK A01 T01180022  RH  052%=      5-min Rain = 0
KUM1 222059Z 13009KT 12/02 A2981 RMK A01 T01170023  RH  052%=      5-min Rain = 0
KUM1 222100Z 14011KT 12/02 A298 RMK A01 T01180023  RH  052%=      5-min Rain = 0
KUM1 222101Z 14012KT 12/02 A298 RMK A01 T01190022  RH  051%=      5-min Rain = 0
KUM1 222102Z 15012KT 12/02 A298 RMK A01 T01170020  RH  051%=      5-min Rain = 0
KUM1 222103Z 14011KT 12/02 A298 RMK A01 T01160021  RH  052%=      5-min Rain = 0
KUM1 222104Z 15012KT 12/02 A298 RMK A01 T01170020  RH  051%=      5-min Rain = 0
KUM1 222105Z 15010KT 12/02 A298 RMK A01 T01180019  RH  051%=      5-min Rain = 0
KUM1 222106Z 15009KT 12/02 A298 RMK A01 T01180019  RH  051%=      5-min Rain = 0
KUM1 222107Z 14010KT 12/02 A298 RMK A01 T01180019  RH  051%=      5-min Rain = 0
KUM1 222108Z 14013KT 12/02 A298 RMK A01 T01180021  RH  051%=      5-min Rain = 0
KUM1 222109Z 14009KT 12/02 A298 RMK A01 T01180019  RH  051%=      5-min Rain = 0
KUM1 222110Z 13009KT 12/02 A298 RMK A01 T01160019  RH  052%=      5-min Rain = 0
KUM1 222111Z 14011KT 12/02 A298 RMK A01 T01170022  RH  052%=      5-min Rain = 0
KUM1 222112Z 13009G14KT 12/02 A298 RMK A01 T01180022  RH  052%=      5-min Rain = 0
KUM1 222113Z 16011KT 12/02 A298 RMK A01 T01200023  RH  052%=      5-min Rain = 0
KUM1 222114Z 17011KT 12/02 A298 RMK A01 T01210020  RH  050%=      5-min Rain = 0
KUM1 222115Z 16011KT 12/02 A298 RMK A01 T01190016  RH  050%=      5-min Rain = 0
KUM1 222116Z 16008KT 12/02 A298 RMK A01 T01160016  RH  050%=      5-min Rain = 0
KUM1 222117Z 17010KT 12/02 A298 RMK A01 T01170018  RH  051%=      5-min Rain = 0
KUM1 222118Z 15011KT 12/02 A298 RMK A01 T01210020  RH  050%=      5-min Rain = 0
KUM1 222119Z 15011KT 12/02 A298 RMK A01 T01220018  RH  049%=      5-min Rain = 0
KUM1 222120Z 15011KT 12/02 A298 RMK A01 T01200016  RH  049%=      5-min Rain = 0
KUM1 222121Z 13010KT 12/02 A298 RMK A01 T01190017  RH  049%=      5-min Rain = 0
KUM1 222122Z 13010KT 12/02 A298 RMK A01 T01180016  RH  049%=      5-min Rain = 0
KUM1 222123Z 13011KT 12/02 A298 RMK A01 T01190018  RH  050%=      5-min Rain = 0
KUM1 222124Z 15011KT 12/02 A298 RMK A01 T01190018  RH  050%=      5-min Rain = 0
KUM1 222125Z 15011KT 12/02 A298 RMK A01 T01210020  RH  050%=      5-min Rain = 0
KUM1 222126Z 17011KT 12/02 A298 RMK A01 T01230020  RH  050%=      5-min Rain = 0
KUM1 222127Z 16008KT 12/02 A298 RMK A01 T01230019  RH  049%=      5-min Rain = 0
KUM1 222128Z 14011KT 12/02 A298 RMK A01 T01230020  RH  049%=      5-min Rain = 0
KUM1 222129Z 14012KT 12/02 A298 RMK A01 T01240019  RH  049%=      5-min Rain = 0
KUM1 222130Z 14011KT 12/02 A298 RMK A01 T01230017  RH  048%=      5-min Rain = 0
KUM1 222131Z 14014KT 12/02 A298 RMK A01 T01240016  RH  048%=      5-min Rain = 0
KUM1 222132Z 14012KT 12/02 A298 RMK A01 T01220015  RH  048%=      5-min Rain = 0
KUM1 222133Z 14010KT 12/02 A298 RMK A01 T01220017  RH  049%=      5-min Rain = 0
KUM1 222134Z 15010KT 12/02 A298 RMK A01 T01230017  RH  048%=      5-min Rain = 0
KUM1 222135Z 15013KT 12/02 A298 RMK A01 T01230018  RH  048%=      5-min Rain = 0
KUM1 222136Z 16010KT 12/02 A298 RMK A01 T01230015  RH  048%=      5-min Rain = 0
KUM1 222137Z 16012KT 12/01 A2979 RMK A01 T01230012  RH  047%=      5-min Rain = 0
KUM1 222138Z 17012KT 13/01 A2979 RMK A01 T01250010  RH  045%=      5-min Rain = 0
KUM1 222139Z 16011KT 13/01 A2979 RMK A01 T01270011  RH  045%=      5-min Rain = 0
KUM1 222140Z 15010KT 12/01 A2979 RMK A01 T01240010  RH  046%=      5-min Rain = 0
KUM1 222141Z 15010KT 12/01 A2979 RMK A01 T01230012  RH  047%=      5-min Rain = 0
KUM1 222142Z 13011KT 12/01 A2979 RMK A01 T01240013  RH  047%=      5-min Rain = 0
KUM1 222143Z 16011KT 13/02 A2979 RMK A01 T01260016  RH  047%=      5-min Rain = 0
KUM1 222144Z 17012KT 13/02 A2979 RMK A01 T01270017  RH  047%=      5-min Rain = 0
KUM1 222145Z 16013KT 13/02 A2979 RMK A01 T01260015  RH  047%=      5-min Rain = 0
KUM1 222146Z 15013KT 13/01 A2979 RMK A01 T01260011  RH  046%=      5-min Rain = 0
KUM1 222147Z 15011KT 12/01 A2979 RMK A01 T01240009  RH  045%=      5-min Rain = 0
KUM1 222148Z 15012KT 13/01 A2979 RMK A01 T01250010  RH  045%=      5-min Rain = 0
KUM1 222149Z 15011KT 13/01 A2979 RMK A01 T01270010  RH  045%=      5-min Rain = 0
KUM1 222150Z 15011KT 13/01 A2979 RMK A01 T01280010  RH  045%=      5-min Rain = 0
KUM1 222151Z 15011KT 13/01 A2979 RMK A01 T01290014  RH  045%=      5-min Rain = 0
KUM1 222152Z 16012KT 13/01 A2979 RMK A01 T01300013  RH  045%=      5-min Rain = 0
KUM1 222153Z 15011KT 13/02 A2979 RMK A01 T01300015  RH  045%=      5-min Rain = 0
KUM1 222154Z 15013KT 13/02 A2979 RMK A01 T01300015  RH  045%=      5-min Rain = 0
KUM1 222155Z 14012KT 13/01 A2979 RMK A01 T01300013  RH  045%=      5-min Rain = 0
KUM1 222156Z 14013KT 13/01 A2979 RMK A01 T01290012  RH  045%=      5-min Rain = 0
KUM1 222157Z 15013KT 13/01 A2979 RMK A01 T01290012  RH  045%=      5-min Rain = 0
KUM1 222158Z 14014G21KT 13/01 A2979 RMK A01 T01290013  RH  045%=      5-min Rain = 0
KUM1 222159Z 15015KT 13/01 A2979 RMK A01 T01310013  RH  044%=      5-min Rain = 0
KUM1 222200Z 14013KT 13/01 A2979 RMK A01 T01300011  RH  044%=      5-min Rain = 0
KUM1 222201Z 14013KT 13/01 A2979 RMK A01 T01290009  RH  044%=      5-min Rain = 0
KUM1 222202Z 14014KT 13/01 A2979 RMK A01 T01280008  RH  044%=      5-min Rain = 0
KUM1 222203Z 14013KT 13/01 A2979 RMK A01 T01290008  RH  044%=      5-min Rain = 0
KUM1 222204Z 15010KT 13/01 A2979 RMK A01 T01280009  RH  044%=      5-min Rain = 0
KUM1 222205Z 15011KT 13/01 A2979 RMK A01 T01290009  RH  044%=      5-min Rain = 0
KUM1 222206Z 18013KT 13/01 A2979 RMK A01 T01310009  RH  044%=      5-min Rain = 0
KUM1 222207Z 18011KT 13/01 A2979 RMK A01 T01310007  RH  043%=      5-min Rain = 0
KUM1 222208Z 16011KT 13/01 A2979 RMK A01 T01310007  RH  043%=      5-min Rain = 0
KUM1 222209Z 15010KT 13/01 A2979 RMK A01 T01310006  RH  042%=      5-min Rain = 0
KUM1 222210Z 16011KT 13/01 A2979 RMK A01 T01310006  RH  042%=      5-min Rain = 0
KUM1 222211Z 16011KT 13/00 A2979 RMK A01 T01300003  RH  042%=      5-min Rain = 0
KUM1 222212Z 16013KT 13/01 A2979 RMK A01 T01290005  RH  042%=      5-min Rain = 0
KUM1 222213Z 15014KT 13/01 A2979 RMK A01 T01300009  RH  044%=      5-min Rain = 0
KUM1 222214Z 15010KT 13/01 A2979 RMK A01 T01280007  RH  044%=      5-min Rain = 0
KUM1 222215Z 14013KT 13/01 A2979 RMK A01 T01270007  RH  044%=      5-min Rain = 0
KUM1 222216Z 14013KT 13/01 A2979 RMK A01 T01270008  RH  044%=      5-min Rain = 0
KUM1 222217Z 14014KT 13/01 A2979 RMK A01 T01280008  RH  044%=      5-min Rain = 0
KUM1 222218Z 14013KT 13/01 A2978 RMK A01 T01280007  RH  044%=      5-min Rain = 0
KUM1 222219Z 15013KT 13/01 A2978 RMK A01 T01280007  RH  044%=      5-min Rain = 0
KUM1 222220Z 14012KT 13/01 A2978 RMK A01 T01280007  RH  044%=      5-min Rain = 0
KUM1 222221Z 16013KT 13/01 A2978 RMK A01 T01300010  RH  044%=      5-min Rain = 0
KUM1 222222Z 15013G18KT 13/01 A2978 RMK A01 T01320012  RH  044%=      5-min Rain = 0
KUM1 222223Z 15013KT 13/01 A2978 RMK A01 T01330011  RH  044%=      5-min Rain = 0
KUM1 222224Z 15013KT 13/01 A2978 RMK A01 T01310010  RH  044%=      5-min Rain = 0
KUM1 222225Z 16016KT 13/01 A2978 RMK A01 T01310009  RH  043%=      5-min Rain = 0
KUM1 222226Z 17012KT 13/01 A2978 RMK A01 T01310007  RH  043%=      5-min Rain = 0
KUM1 222227Z 17012KT 13/01 A2978 RMK A01 T01310007  RH  042%=      5-min Rain = 0
KUM1 222228Z 17013KT 13/00 A2978 RMK A01 T01300002  RH  041%=      5-min Rain = 0
KUM1 222229Z 16012KT 13/M00 A2978 RMK A01 T01291002  RH  041%=      5-min Rain = 0
KUM1 222230Z 15012KT 13/00 A2978 RMK A01 T01290003  RH  042%=      5-min Rain = 0
KUM1 222231Z 15011KT 13/01 A2978 RMK A01 T01300008  RH  043%=      5-min Rain = 0
KUM1 222232Z 16012KT 13/01 A2978 RMK A01 T01310012  RH  044%=      5-min Rain = 0
KUM1 222233Z 17013KT 13/01 A2978 RMK A01 T01340007  RH  042%=      5-min Rain = 0
KUM1 222234Z 16015KT 13/01 A2978 RMK A01 T01340006  RH  041%=      5-min Rain = 0
KUM1 222235Z 16014KT 13/00 A2978 RMK A01 T01310004  RH  042%=      5-min Rain = 0
KUM1 222236Z 16015KT 13/00 A2978 RMK A01 T01300004  RH  042%=      5-min Rain = 0
KUM1 222237Z 16014KT 13/00 A2978 RMK A01 T01300001  RH  041%=      5-min Rain = 0
KUM1 222238Z 16014KT 13/00 A2978 RMK A01 T01300002  RH  042%=      5-min Rain = 0
KUM1 222239Z 16014KT 13/00 A2978 RMK A01 T01300002  RH  041%=      5-min Rain = 0
KUM1 222240Z 16012KT 13/00 A2978 RMK A01 T01300002  RH  041%=      5-min Rain = 0
KUM1 222241Z 15014KT 13/01 A2978 RMK A01 T01300006  RH  043%=      5-min Rain = 0
KUM1 222242Z 14013KT 13/01 A2978 RMK A01 T01310009  RH  043%=      5-min Rain = 0
KUM1 222243Z 13014KT 13/01 A2978 RMK A01 T01320009  RH  043%=      5-min Rain = 0
KUM1 222244Z 14014KT 13/01 A2978 RMK A01 T01300008  RH  043%=      5-min Rain = 0
KUM1 222245Z 14015KT 13/01 A2978 RMK A01 T01310008  RH  043%=      5-min Rain = 0
KUM1 222246Z 15014KT 13/01 A2978 RMK A01 T01320007  RH  043%=      5-min Rain = 0
KUM1 222247Z 15013KT 13/01 A2978 RMK A01 T01330008  RH  043%=      5-min Rain = 0
KUM1 222248Z 14014G19KT 13/01 A2978 RMK A01 T01330008  RH  042%=      5-min Rain = 0
KUM1 222249Z 15015KT 13/01 A2978 RMK A01 T01330007  RH  042%=      5-min Rain = 0
KUM1 222250Z 15013KT 13/01 A2978 RMK A01 T01320005  RH  042%=      5-min Rain = 0
KUM1 222251Z 15014KT 13/00 A2978 RMK A01 T01340002  RH  040%=      5-min Rain = 0
KUM1 222252Z 14015KT 13/00 A2978 RMK A01 T01330004  RH  041%=      5-min Rain = 0
KUM1 222253Z 16015KT 13/00 A2978 RMK A01 T01330004  RH  041%=      5-min Rain = 0
KUM1 222254Z 16017KT 13/00 A2978 RMK A01 T013200-0  RH  040%=      5-min Rain = 0
KUM1 222255Z 16014KT 13/00 A2978 RMK A01 T01310001  RH  041%=      5-min Rain = 0
KUM1 222256Z 16016KT 13/00 A2978 RMK A01 T01300002  RH  041%=      5-min Rain = 0
KUM1 222257Z 15015KT 13/00 A2978 RMK A01 T01300002  RH  041%=      5-min Rain = 0
KUM1 222258Z 15016G21KT 13/00 A2978 RMK A01 T01300004  RH  042%=      5-min Rain = 0
KUM1 222259Z 16017KT 13/00 A2978 RMK A01 T01300002  RH  041%=      5-min Rain = 0
KUM1 222300Z 15015KT 13/00 A2978 RMK A01 T013000-0  RH  041%=      5-min Rain = 0
KUM1 222301Z 16016KT 13/00 A2978 RMK A01 T01310001  RH  041%=      5-min Rain = 0
KUM1 222302Z 15015KT 13/00 A2978 RMK A01 T01310003  RH  042%=      5-min Rain = 0
KUM1 222303Z 16016KT 13/01 A2978 RMK A01 T01320007  RH  042%=      5-min Rain = 0
KUM1 222304Z 16015KT 13/01 A2978 RMK A01 T01320007  RH  042%=      5-min Rain = 0
KUM1 222305Z 15017KT 13/01 A2978 RMK A01 T01320006  RH  042%=      5-min Rain = 0
KUM1 222306Z 16017KT 13/00 A2977 RMK A01 T01310003  RH  041%=      5-min Rain = 0
KUM1 222307Z 16014KT 13/01 A2978 RMK A01 T01310005  RH  042%=      5-min Rain = 0
KUM1 222308Z 15015KT 13/01 A2978 RMK A01 T01320007  RH  043%=      5-min Rain = 0
KUM1 222309Z 14015KT 13/01 A2978 RMK A01 T01320008  RH  043%=      5-min Rain = 0
KUM1 222310Z 14016KT 13/01 A2978 RMK A01 T01320007  RH  042%=      5-min Rain = 0
KUM1 222311Z 16017KT 13/01 A2977 RMK A01 T01320005  RH  042%=      5-min Rain = 0
KUM1 222312Z 16014KT 13/00 A2978 RMK A01 T01310004  RH  042%=      5-min Rain = 0
KUM1 222313Z 15015KT 13/01 A2978 RMK A01 T01310006  RH  042%=      5-min Rain = 0
KUM1 222314Z 15013KT 13/01 A2978 RMK A01 T01300005  RH  042%=      5-min Rain = 0
KUM1 222315Z 15016KT 13/01 A2977 RMK A01 T01300005  RH  042%=      5-min Rain = 0
KUM1 222316Z 16014KT 13/01 A2977 RMK A01 T01300005  RH  042%=      5-min Rain = 0
KUM1 222317Z 16016KT 13/01 A2977 RMK A01 T01300006  RH  043%=      5-min Rain = 0
KUM1 222318Z 15016KT 13/01 A2977 RMK A01 T01300007  RH  043%=      5-min Rain = 0
KUM1 222319Z 14017KT 13/01 A2977 RMK A01 T01290007  RH  043%=      5-min Rain = 0
KUM1 222320Z 14015KT 13/01 A2977 RMK A01 T01290007  RH  043%=      5-min Rain = 0
KUM1 222321Z 14016KT 13/01 A2977 RMK A01 T01290007  RH  043%=      5-min Rain = 0
KUM1 222322Z 14015KT 13/01 A2977 RMK A01 T01290006  RH  043%=      5-min Rain = 0
KUM1 222323Z 14017KT 13/01 A2977 RMK A01 T01290006  RH  043%=      5-min Rain = 0
KUM1 222324Z 14018KT 13/00 A2977 RMK A01 T01280003  RH  042%=      5-min Rain = 0
KUM1 222325Z 15016KT 13/00 A2977 RMK A01 T01280002  RH  042%=      5-min Rain = 0
KUM1 222326Z 15015KT 13/00 A2977 RMK A01 T01270002  RH  042%=      5-min Rain = 0
KUM1 222327Z 15015G20KT 13/00 A2977 RMK A01 T01280003  RH  042%=      5-min Rain = 0
KUM1 222328Z 15015KT 13/00 A2977 RMK A01 T01280001  RH  042%=      5-min Rain = 0
KUM1 222329Z 15017KT 13/00 A2977 RMK A01 T01280001  RH  042%=      5-min Rain = 0
KUM1 222330Z 16016KT 13/00 A2977 RMK A01 T01280003  RH  042%=      5-min Rain = 0
KUM1 222331Z 15015KT 13/00 A2977 RMK A01 T01280004  RH  043%=      5-min Rain = 0
KUM1 222332Z 14017KT 13/01 A2977 RMK A01 T01280006  RH  043%=      5-min Rain = 0
KUM1 222333Z 14016KT 13/01 A2977 RMK A01 T01270007  RH  044%=      5-min Rain = 0
KUM1 222334Z 14014KT 13/01 A2977 RMK A01 T01270008  RH  044%=      5-min Rain = 0
KUM1 222335Z 14014KT 13/01 A2977 RMK A01 T01260008  RH  044%=      5-min Rain = 0
KUM1 222336Z 14015KT 13/01 A2977 RMK A01 T01260009  RH  045%=      5-min Rain = 0
KUM1 222337Z 14014KT 13/01 A2977 RMK A01 T01260008  RH  045%=      5-min Rain = 0
KUM1 222338Z 15015KT 13/01 A2977 RMK A01 T01250008  RH  045%=      5-min Rain = 0
KUM1 222339Z 15015KT 13/01 A2977 RMK A01 T01250008  RH  045%=      5-min Rain = 0
KUM1 222340Z 16015KT 13/01 A2977 RMK A01 T01250007  RH  045%=      5-min Rain = 0
KUM1 222341Z 15014KT 13/01 A2977 RMK A01 T01250006  RH  044%=      5-min Rain = 0
KUM1 222342Z 15013KT 13/01 A2977 RMK A01 T01250006  RH  044%=      5-min Rain = 0
KUM1 222343Z 15013KT 13/01 A2977 RMK A01 T01250005  RH  044%=      5-min Rain = 0
KUM1 222344Z 15014KT 13/00 A2977 RMK A01 T01250004  RH  044%=      5-min Rain = 0
KUM1 222345Z 14015KT 12/00 A2977 RMK A01 T01240004  RH  044%=      5-min Rain = 0
KUM1 222346Z 13014KT 12/00 A2977 RMK A01 T01240004  RH  044%=      5-min Rain = 0
KUM1 222347Z 12015KT 12/02 A2977 RMK A01 T01210016  RH  049%=      5-min Rain = 0
KUM1 222348Z 12013KT 11/03 A2977 RMK A01 T01130025  RH  055%=      5-min Rain = 0
KUM1 222349Z 11012KT 11/03 A2977 RMK A01 T01060027  RH  058%=      5-min Rain = 0
KUM1 222350Z 11014KT 10/03 A2977 RMK A01 T01030029  RH  060%=      5-min Rain = 0
KUM1 222351Z 11016KT 10/03 A2977 RMK A01 T01010030  RH  061%=      5-min Rain = 0
KUM1 222352Z 11015KT 10/03 A2977 RMK A01 T00990030  RH  062%=      5-min Rain = 0
KUM1 222353Z 12015KT 10/03 A2978 RMK A01 T00970030  RH  063%=      5-min Rain = 0
KUM1 222354Z 12017KT 10/03 A2978 RMK A01 T00960030  RH  064%=      5-min Rain = 0
KUM1 222355Z 12016KT 09/03 A2978 RMK A01 T00940030  RH  065%=      5-min Rain = 0
KUM1 222356Z 12018KT 09/03 A2978 RMK A01 T00920030  RH  065%=      5-min Rain = 0
KUM1 222357Z 12019KT 09/03 A2978 RMK A01 T00900031  RH  066%=      5-min Rain = 0
KUM1 222358Z 12018KT 09/03 A2978 RMK A01 T00890031  RH  067%=      5-min Rain = 0
KUM1 222359Z 12016KT 09/03 A2978 RMK A01 T00880031  RH  068%=      5-min Rain = 0
KUM1 230000Z 11015KT 09/03 A2978 RMK A01 T00860031  RH  068%=      5-min Rain = 0
KUM1 230001Z 12017KT 08/03 A2978 RMK A01 T00840031  RH  069%=      5-min Rain = 0
KUM1 230002Z 12016KT 08/03 A2978 RMK A01 T00820031  RH  070%=      5-min Rain = 0
KUM1 230003Z 12017KT 08/03 A2978 RMK A01 T00810030  RH  071%=      5-min Rain = 0
KUM1 230004Z 12017KT 08/03 A2978 RMK A01 T00790030  RH  072%=      5-min Rain = 0
KUM1 230005Z 12016KT 08/03 A2978 RMK A01 T00770031  RH  073%=      5-min Rain = 0
KUM1 230006Z 12014KT 08/03 A2979 RMK A01 T00760031  RH  073%=      5-min Rain = 0
KUM1 230007Z 12016KT 08/03 A2979 RMK A01 T00750031  RH  074%=      5-min Rain = 0
KUM1 230008Z 12017KT 07/03 A2979 RMK A01 T00740031  RH  074%=      5-min Rain = 0
KUM1 230009Z 12014KT 07/03 A2979 RMK A01 T00730031  RH  075%=      5-min Rain = 0
KUM1 230010Z 12015KT 07/03 A2979 RMK A01 T00720031  RH  075%=      5-min Rain = 0
KUM1 230011Z 12017KT 07/03 A2979 RMK A01 T00720031  RH  075%=      5-min Rain = 0
KUM1 230012Z 12018KT 07/03 A2979 RMK A01 T00710031  RH  076%=      5-min Rain = 0
KUM1 230013Z 12016KT 07/03 A2979 RMK A01 T00690031  RH  077%=      5-min Rain = 0
KUM1 230014Z 12015KT 07/03 A2979 RMK A01 T00690031  RH  077%=      5-min Rain = 0
KUM1 230015Z 12017KT 07/03 A2979 RMK A01 T00680031  RH  077%=      5-min Rain = 0
KUM1 230016Z 12017KT 07/03 A2979 RMK A01 T00670031  RH  078%=      5-min Rain = 0
KUM1 230017Z 12019KT 07/03 A2979 RMK A01 T00670032  RH  078%=      5-min Rain = 0
KUM1 230018Z 12017KT 07/03 A2979 RMK A01 T00660031  RH  078%=      5-min Rain = 0
KUM1 230019Z 12017KT 07/03 A2979 RMK A01 T00650031  RH  079%=      5-min Rain = 0
KUM1 230020Z 12017KT 07/03 A2979 RMK A01 T00650031  RH  079%=      5-min Rain = 0
KUM1 230021Z 12018KT 06/03 A2979 RMK A01 T00640031  RH  079%=      5-min Rain = 0
KUM1 230022Z 12015G20KT 06/03 A2979 RMK A01 T00630031  RH  080%=      5-min Rain = 0
KUM1 230023Z 12016KT 06/03 A2979 RMK A01 T00620030  RH  080%=      5-min Rain = 0
KUM1 230024Z 12018KT 06/03 A2979 RMK A01 T00610030  RH  080%=      5-min Rain = 0
KUM1 230025Z 12017KT 06/03 A2979 RMK A01 T00610030  RH  081%=      5-min Rain = 0
KUM1 230026Z 12016KT 06/03 A2979 RMK A01 T00600030  RH  081%=      5-min Rain = 0
KUM1 230027Z 12015KT 06/03 A2979 RMK A01 T00590029  RH  081%=      5-min Rain = 0
KUM1 230028Z 12015KT 06/03 A2979 RMK A01 T00580029  RH  081%=      5-min Rain = 0
KUM1 230029Z 12015KT 06/03 A2979 RMK A01 T00570028  RH  082%=      5-min Rain = 0
KUM1 230030Z 12014KT 06/03 A2979 RMK A01 T00570029  RH  082%=      5-min Rain = 0
KUM1 230031Z 12016KT 06/03 A2979 RMK A01 T00560028  RH  082%=      5-min Rain = 0
KUM1 230032Z 12015KT 06/03 A2979 RMK A01 T00550028  RH  083%=      5-min Rain = 0
KUM1 230033Z 12016KT 05/03 A2979 RMK A01 T00540028  RH  083%=      5-min Rain = 0
KUM1 230034Z 12016G21KT 05/03 A2979 RMK A01 T00540028  RH  084%=      5-min Rain = 0
KUM1 230035Z 12018KT 05/03 A2979 RMK A01 T00540029  RH  084%=      5-min Rain = 0
KUM1 230036Z 12016KT 05/03 A2979 RMK A01 T00530029  RH  084%=      5-min Rain = 0
KUM1 230037Z 12016KT 05/03 A2979 RMK A01 T00530028  RH  084%=      5-min Rain = 0
KUM1 230038Z 12013KT 05/03 A2979 RMK A01 T00530028  RH  084%=      5-min Rain = 0
KUM1 230039Z 12012KT 05/03 A2979 RMK A01 T00520027  RH  084%=      5-min Rain = 0
KUM1 230040Z 12015G20KT 05/03 A2979 RMK A01 T00510026  RH  084%=      5-min Rain = 0
KUM1 230041Z 12018KT 05/03 A2979 RMK A01 T00510027  RH  085%=      5-min Rain = 0
KUM1 230042Z 12015KT 05/03 A2979 RMK A01 T00500027  RH  085%=      5-min Rain = 0
KUM1 230043Z 12015KT 05/03 A2979 RMK A01 T00500027  RH  085%=      5-min Rain = 0
KUM1 230044Z 12015KT 05/03 A2979 RMK A01 T00500027  RH  085%=      5-min Rain = 0
KUM1 230045Z 12015KT 05/03 A2979 RMK A01 T00500027  RH  085%=      5-min Rain = 0
KUM1 230046Z 12017KT 05/03 A2979 RMK A01 T00490027  RH  085%=      5-min Rain = 0
KUM1 230047Z 12015KT 05/03 A2979 RMK A01 T00480026  RH  086%=      5-min Rain = 0
KUM1 230048Z 12016G21KT 05/03 A2978 RMK A01 T00480027  RH  086%=      5-min Rain = 0
KUM1 230049Z 12017KT 05/03 A2978 RMK A01 T00480026  RH  086%=      5-min Rain = 0
KUM1 230050Z 12015KT 05/03 A2978 RMK A01 T00470026  RH  086%=      5-min Rain = 0
KUM1 230051Z 12016KT 05/03 A2978 RMK A01 T00470026  RH  086%=      5-min Rain = 0
KUM1 230052Z 12015KT 05/03 A2978 RMK A01 T00460025  RH  086%=      5-min Rain = 0
KUM1 230053Z 12017KT 05/02 A2978 RMK A01 T00450024  RH  086%=      5-min Rain = 0
KUM1 230054Z 12018KT 05/03 A2979 RMK A01 T00450025  RH  087%=      5-min Rain = 0
KUM1 230055Z 12020KT 05/03 A2979 RMK A01 T00450025  RH  087%=      5-min Rain = 0
KUM1 230056Z 12019KT 05/03 A2979 RMK A01 T00450025  RH  087%=      5-min Rain = 0
KUM1 230057Z 12019KT 05/03 A2979 RMK A01 T00450025  RH  087%=      5-min Rain = 0
KUM1 230058Z 12019KT 04/03 A2979 RMK A01 T00440025  RH  087%=      5-min Rain = 0
KUM1 230059Z 12019KT 04/03 A2978 RMK A01 T00440025  RH  087%=      5-min Rain = 0
KUM1 230100Z 12019KT 04/03 A2978 RMK A01 T00440025  RH  088%=      5-min Rain = 0
KUM1 230101Z 12020KT 04/03 A2978 RMK A01 T00440025  RH  088%=      5-min Rain = 0
KUM1 230102Z 12021KT 04/03 A2978 RMK A01 T00440025  RH  088%=      5-min Rain = 0
KUM1 230103Z 12018KT 04/03 A2978 RMK A01 T00430025  RH  088%=      5-min Rain = 0
KUM1 230104Z 12016KT 04/03 A2978 RMK A01 T00440025  RH  088%=      5-min Rain = 0
KUM1 230105Z 12017KT 04/03 A2978 RMK A01 T00440025  RH  088%=      5-min Rain = 0
KUM1 230106Z 12020KT 04/03 A2978 RMK A01 T00440026  RH  088%=      5-min Rain = 0
KUM1 230107Z 12018KT 05/03 A2978 RMK A01 T00450026  RH  088%=      5-min Rain = 0
KUM1 230108Z 12018KT 05/03 A2978 RMK A01 T00450026  RH  088%=      5-min Rain = 0
KUM1 230109Z 12018KT 05/03 A2978 RMK A01 T00450026  RH  088%=      5-min Rain = 0
KUM1 230110Z 12016KT 05/03 A2978 RMK A01 T00450026  RH  088%=      5-min Rain = 0
KUM1 230111Z 12017KT 05/03 A2978 RMK A01 T00450026  RH  088%=      5-min Rain = 0
KUM1 230112Z 12019KT 05/03 A2978 RMK A01 T00450027  RH  088%=      5-min Rain = 0
KUM1 230113Z 12018KT 05/03 A2978 RMK A01 T00450027  RH  088%=      5-min Rain = 0
KUM1 230114Z 12018KT 05/03 A2978 RMK A01 T00450027  RH  088%=      5-min Rain = 0
KUM1 230115Z 12017KT 05/03 A2979 RMK A01 T00450027  RH  088%=      5-min Rain = 0
KUM1 230116Z 13020KT 05/03 A2978 RMK A01 T00450028  RH  089%=      5-min Rain = 0
KUM1 230117Z 13017KT 05/03 A2979 RMK A01 T00460029  RH  089%=      5-min Rain = 0
KUM1 230118Z 13018KT 05/03 A2979 RMK A01 T00460030  RH  089%=      5-min Rain = 0
KUM1 230119Z 13019KT 05/03 A2979 RMK A01 T00460030  RH  089%=      5-min Rain = 0
KUM1 230120Z 13016KT 05/03 A2978 RMK A01 T00460029  RH  089%=      5-min Rain = 0
KUM1 230121Z 12019KT 05/03 A2979 RMK A01 T00460029  RH  089%=      5-min Rain = 0
KUM1 230122Z 13019KT 05/03 A2978 RMK A01 T00460029  RH  089%=      5-min Rain = 0
KUM1 230123Z 12019KT 05/03 A2978 RMK A01 T00460029  RH  089%=      5-min Rain = 0
KUM1 230124Z 13022KT 05/03 A2978 RMK A01 T00470030  RH  089%=      5-min Rain = 0
KUM1 230125Z 12021KT 05/03 A2978 RMK A01 T00460030  RH  089%=      5-min Rain = 0
KUM1 230126Z 13022KT 05/03 A2979 RMK A01 T00460030  RH  089%=      5-min Rain = 0
KUM1 230127Z 13021KT 05/03 A2979 RMK A01 T00460030  RH  089%=      5-min Rain = 0
KUM1 230128Z 12020KT 05/03 A2979 RMK A01 T00450029  RH  089%=      5-min Rain = 0
KUM1 230129Z 13021KT 05/03 A2979 RMK A01 T00450029  RH  089%=      5-min Rain = 0
KUM1 230130Z 13019KT 05/03 A2979 RMK A01 T00450029  RH  089%=      5-min Rain = 0
KUM1 230131Z 13020G25KT 05/03 A2979 RMK A01 T00460030  RH  089%=      5-min Rain = 0
KUM1 230132Z 13018KT 05/03 A2978 RMK A01 T00450029  RH  089%=      5-min Rain = 0
KUM1 230133Z 12020KT 05/03 A2978 RMK A01 T00450029  RH  089%=      5-min Rain = 0
KUM1 230134Z 12020KT 05/03 A2978 RMK A01 T00450029  RH  089%=      5-min Rain = 0
KUM1 230135Z 12019KT 04/03 A2978 RMK A01 T00440028  RH  089%=      5-min Rain = 0
KUM1 230136Z 12020KT 04/03 A2978 RMK A01 T00440028  RH  089%=      5-min Rain = 0
KUM1 230137Z 12021KT 04/03 A2978 RMK A01 T00430028  RH  090%=      5-min Rain = 0
KUM1 230138Z 13019KT 04/03 A2978 RMK A01 T00430028  RH  090%=      5-min Rain = 0
KUM1 230139Z 12017KT 04/03 A2978 RMK A01 T00420027  RH  090%=      5-min Rain = 0
KUM1 230140Z 12016KT 04/03 A2977 RMK A01 T00420027  RH  090%=      5-min Rain = 0
KUM1 230141Z 12017G22KT 04/03 A2977 RMK A01 T00420027  RH  090%=      5-min Rain = 0
KUM1 230142Z 12017KT 04/03 A2977 RMK A01 T00420027  RH  090%=      5-min Rain = 0
KUM1 230143Z 12016KT 04/03 A2977 RMK A01 T00410027  RH  090%=      5-min Rain = 0
KUM1 230144Z 12018KT 04/03 A2977 RMK A01 T00410027  RH  091%=      5-min Rain = 0
KUM1 230145Z 12017KT 04/03 A2977 RMK A01 T00400027  RH  091%=      5-min Rain = 0
KUM1 230146Z 12019KT 04/03 A2977 RMK A01 T00400027  RH  091%=      5-min Rain = 0
KUM1 230147Z 12019G24KT 04/03 A2977 RMK A01 T00400027  RH  091%=      5-min Rain = 0
KUM1 230148Z 12020KT 04/03 A2977 RMK A01 T00400027  RH  091%=      5-min Rain = 0
KUM1 230149Z 12018KT 04/03 A2977 RMK A01 T00400027  RH  091%=      5-min Rain = 0
KUM1 230150Z 12017KT 04/03 A2977 RMK A01 T00390026  RH  091%=      5-min Rain = 0
KUM1 230151Z 12017G22KT 04/03 A2977 RMK A01 T00400027  RH  091%=      5-min Rain = 0
KUM1 230152Z 12020KT 04/03 A2977 RMK A01 T00390027  RH  091%=      5-min Rain = 0
KUM1 230153Z 12018KT 04/03 A2977 RMK A01 T00390027  RH  092%=      5-min Rain = 0
KUM1 230154Z 11016G23KT 04/03 A2977 RMK A01 T00400028  RH  092%=      5-min Rain = 0
KUM1 230155Z 12019KT 04/03 A2977 RMK A01 T00400028  RH  092%=      5-min Rain = 0
KUM1 230156Z 11016KT 04/03 A2976 RMK A01 T00400028  RH  092%=      5-min Rain = 0
KUM1 230157Z 12016KT 04/03 A2976 RMK A01 T00400028  RH  092%=      5-min Rain = 0
KUM1 230158Z 12018KT 04/03 A2976 RMK A01 T00400028  RH  092%=      5-min Rain = 0
KUM1 230159Z 12019KT 04/03 A2976 RMK A01 T00400028  RH  092%=      5-min Rain = 0
KUM1 230200Z 12018KT 04/03 A2976 RMK A01 T00400028  RH  092%=      5-min Rain = 0
KUM1 230201Z 12019KT 04/03 A2976 RMK A01 T00400029  RH  092%=      5-min Rain = 0
KUM1 230202Z 12020KT 04/03 A2976 RMK A01 T00410029  RH  092%=      5-min Rain = 0
KUM1 230203Z 12020KT 04/03 A2976 RMK A01 T00400029  RH  092%=      5-min Rain = 0
KUM1 230204Z 12019KT 04/03 A2976 RMK A01 T00400029  RH  092%=      5-min Rain = 0
KUM1 230205Z 12018KT 04/03 A2976 RMK A01 T00400029  RH  092%=      5-min Rain = 0
KUM1 230206Z 12019KT 04/03 A2976 RMK A01 T00410029  RH  092%=      5-min Rain = 0
KUM1 230207Z 12018G24KT 04/03 A2976 RMK A01 T00410029  RH  092%=      5-min Rain = 0
KUM1 230208Z 13022KT 04/03 A2976 RMK A01 T00410029  RH  092%=      5-min Rain = 0
KUM1 230209Z 12021G26KT 04/03 A2976 RMK A01 T00410029  RH  092%=      5-min Rain = 0
KUM1 230210Z 12022KT 04/03 A2976 RMK A01 T00410029  RH  092%=      5-min Rain = 0
KUM1 230211Z 13019KT 04/03 A2976 RMK A01 T00410029  RH  092%=      5-min Rain = 0
KUM1 230212Z 12023KT 04/03 A2976 RMK A01 T00410029  RH  092%=      5-min Rain = 0
KUM1 230213Z 12023KT 04/03 A2976 RMK A01 T00400028  RH  092%=      5-min Rain = 0
KUM1 230214Z 12018KT 04/03 A2976 RMK A01 T00400028  RH  092%=      5-min Rain = 0
KUM1 230215Z 13020KT 04/03 A2976 RMK A01 T00400029  RH  092%=      5-min Rain = 0
KUM1 230216Z 12021KT 04/03 A2976 RMK A01 T00400028  RH  092%=      5-min Rain = 0
KUM1 230217Z 12019KT 04/03 A2976 RMK A01 T00400028  RH  092%=      5-min Rain = 0
KUM1 230218Z 12016KT 04/03 A2976 RMK A01 T00390028  RH  092%=      5-min Rain = 0
KUM1 230219Z 12019G24KT 04/03 A2976 RMK A01 T00390027  RH  092%=      5-min Rain = 0
KUM1 230220Z 12021KT 04/03 A2976 RMK A01 T00390027  RH  092%=      5-min Rain = 0
KUM1 230221Z 12017KT 04/03 A2976 RMK A01 T00380026  RH  092%=      5-min Rain = 0
KUM1 230222Z 12018KT 04/03 A2976 RMK A01 T00380026  RH  092%=      5-min Rain = 0
KUM1 230223Z 12020KT 04/03 A2976 RMK A01 T00380026  RH  092%=      5-min Rain = 0
KUM1 230224Z 12022KT 04/03 A2976 RMK A01 T00370026  RH  092%=      5-min Rain = 0
KUM1 230225Z 12019KT 04/03 A2976 RMK A01 T00370025  RH  092%=      5-min Rain = 0
KUM1 230226Z 12019KT 04/03 A2976 RMK A01 T00360025  RH  092%=      5-min Rain = 0
KUM1 230227Z 12021KT 04/03 A2976 RMK A01 T00360025  RH  092%=      5-min Rain = 0
KUM1 230228Z 12020KT 04/03 A2976 RMK A01 T00360025  RH  093%=      5-min Rain = 0
KUM1 230229Z 12021KT 04/03 A2976 RMK A01 T00360025  RH  093%=      5-min Rain = 0
KUM1 230230Z 12020KT 04/03 A2976 RMK A01 T00350025  RH  093%=      5-min Rain = 0
KUM1 230231Z 12019KT 04/03 A2975 RMK A01 T00350025  RH  093%=      5-min Rain = 0
KUM1 230232Z 12021KT 04/02 A2975 RMK A01 T00350024  RH  093%=      5-min Rain = 0
KUM1 230233Z 12022KT 04/02 A2975 RMK A01 T00360024  RH  092%=      5-min Rain = 0
KUM1 230234Z 12017KT 04/02 A2975 RMK A01 T00350024  RH  092%=      5-min Rain = 0
KUM1 230235Z 12019KT 04/02 A2975 RMK A01 T00360024  RH  092%=      5-min Rain = 0
KUM1 230236Z 12019G24KT 04/02 A2975 RMK A01 T00360024  RH  092%=      5-min Rain = 0
KUM1 230237Z 12019KT 04/02 A2975 RMK A01 T00350024  RH  092%=      5-min Rain = 0
KUM1 230238Z 12017KT 04/02 A2975 RMK A01 T00350024  RH  092%=      5-min Rain = 0
KUM1 230239Z 12020KT 04/02 A2975 RMK A01 T00350024  RH  092%=      5-min Rain = 0
KUM1 230240Z 12021KT 04/02 A2975 RMK A01 T00350023  RH  092%=      5-min Rain = 0
KUM1 230241Z 12021KT 03/02 A2975 RMK A01 T00340023  RH  092%=      5-min Rain = 0
KUM1 230242Z 12021KT 03/02 A2975 RMK A01 T00340023  RH  093%=      5-min Rain = 0
KUM1 230243Z 12020KT 03/02 A2975 RMK A01 T00340023  RH  093%=      5-min Rain = 0
KUM1 230244Z 12020KT 03/02 A2975 RMK A01 T00340023  RH  093%=      5-min Rain = 0
KUM1 230245Z 12019KT 03/02 A2975 RMK A01 T00340023  RH  093%=      5-min Rain = 0
KUM1 230246Z 12019KT 03/02 A2975 RMK A01 T00340024  RH  093%=      5-min Rain = 0
KUM1 230247Z 12018KT 03/02 A2975 RMK A01 T00340023  RH  093%=      5-min Rain = 0
KUM1 230248Z 12020KT 03/02 A2975 RMK A01 T00340023  RH  093%=      5-min Rain = 0
KUM1 230249Z 12021KT 03/02 A2975 RMK A01 T00340023  RH  093%=      5-min Rain = 0
KUM1 230250Z 12018KT 03/02 A2975 RMK A01 T00340024  RH  093%=      5-min Rain = 0
KUM1 230251Z 12021KT 03/02 A2975 RMK A01 T00340023  RH  093%=      5-min Rain = 0
KUM1 230252Z 12019KT 03/02 A2975 RMK A01 T00340023  RH  093%=      5-min Rain = 0
KUM1 230253Z 12019KT 03/02 A2975 RMK A01 T00340023  RH  093%=      5-min Rain = 0
KUM1 230254Z 12017KT 03/02 A2975 RMK A01 T00340023  RH  093%=      5-min Rain = 0
KUM1 230255Z 12017KT 04/02 A2975 RMK A01 T00350024  RH  093%=      5-min Rain = 0
KUM1 230256Z 12018KT 03/02 A2975 RMK A01 T00340024  RH  093%=      5-min Rain = 0
KUM1 230257Z 12020KT 04/02 A2975 RMK A01 T00350024  RH  092%=      5-min Rain = 0
KUM1 230258Z 12019KT 04/02 A2975 RMK A01 T00350023  RH  092%=      5-min Rain = 0
KUM1 230259Z 12017KT 04/02 A2975 RMK A01 T00350023  RH  092%=      5-min Rain = 0
KUM1 230300Z 12015KT 04/02 A2975 RMK A01 T00360024  RH  092%=      5-min Rain = 0
KUM1 230301Z 12018G23KT 04/02 A2975 RMK A01 T00350023  RH  092%=      5-min Rain = 0
KUM1 230302Z 12020KT 04/02 A2974 RMK A01 T00350023  RH  092%=      5-min Rain = 0
KUM1 230303Z 12021KT 04/02 A2974 RMK A01 T00350023  RH  092%=      5-min Rain = 0
KUM1 230304Z 12021KT 04/02 A2974 RMK A01 T00350023  RH  092%=      5-min Rain = 0
KUM1 230305Z 12020KT 04/02 A2974 RMK A01 T00350023  RH  092%=      5-min Rain = 0
KUM1 230306Z 13018KT 04/02 A2974 RMK A01 T00350023  RH  092%=      5-min Rain = 0
KUM1 230307Z 13018KT 04/02 A2974 RMK A01 T00350023  RH  092%=      5-min Rain = 0
KUM1 230308Z 13018KT 04/02 A2975 RMK A01 T00350023  RH  091%=      5-min Rain = 0
KUM1 230309Z 12021KT 04/02 A2975 RMK A01 T00350022  RH  091%=      5-min Rain = 0
KUM1 230310Z 12022KT 04/02 A2975 RMK A01 T00350022  RH  091%=      5-min Rain = 0
KUM1 230311Z 12020KT 04/02 A2975 RMK A01 T00350022  RH  091%=      5-min Rain = 0
KUM1 230312Z 12018KT 03/02 A2975 RMK A01 T00340022  RH  092%=      5-min Rain = 0
KUM1 230313Z 12021KT 03/02 A2975 RMK A01 T00340023  RH  092%=      5-min Rain = 0
KUM1 230314Z 13020KT 03/02 A2975 RMK A01 T00340023  RH  092%=      5-min Rain = 0
KUM1 230315Z 12021KT 03/02 A2974 RMK A01 T00340023  RH  092%=      5-min Rain = 0
KUM1 230316Z 12020KT 03/02 A2974 RMK A01 T00340022  RH  092%=      5-min Rain = 0
KUM1 230317Z 13020KT 03/02 A2974 RMK A01 T00340022  RH  092%=      5-min Rain = 0
KUM1 230318Z 12020KT 03/02 A2974 RMK A01 T00340022  RH  092%=      5-min Rain = 0
KUM1 230319Z 12017KT 03/02 A2974 RMK A01 T00340022  RH  092%=      5-min Rain = 0
KUM1 230320Z 12018KT 03/02 A2975 RMK A01 T00340022  RH  092%=      5-min Rain = 0
KUM1 230321Z 12016KT 03/02 A2975 RMK A01 T00340022  RH  092%=      5-min Rain = 0
KUM1 230322Z 12017KT 03/02 A2975 RMK A01 T00340022  RH  092%=      5-min Rain = 0
KUM1 230323Z 12020KT 03/02 A2975 RMK A01 T00340022  RH  092%=      5-min Rain = 0
KUM1 230324Z 12017KT 03/02 A2975 RMK A01 T00340023  RH  092%=      5-min Rain = 0
KUM1 230325Z 12020KT 03/02 A2975 RMK A01 T00340023  RH  092%=      5-min Rain = 0
KUM1 230326Z 12019KT 03/02 A2975 RMK A01 T00340023  RH  092%=      5-min Rain = 0
KUM1 230327Z 12020KT 03/02 A2975 RMK A01 T00340023  RH  092%=      5-min Rain = 0
KUM1 230328Z 12018KT 03/02 A2975 RMK A01 T00340023  RH  092%=      5-min Rain = 0
KUM1 230329Z 12020KT 03/02 A2975 RMK A01 T00340023  RH  092%=      5-min Rain = 0
KUM1 230330Z 12019G26KT 03/02 A2975 RMK A01 T00340022  RH  092%=      5-min Rain = 0
KUM1 230331Z 12021KT 03/02 A2975 RMK A01 T00340022  RH  092%=      5-min Rain = 0
KUM1 230332Z 12019KT 03/02 A2975 RMK A01 T00340022  RH  092%=      5-min Rain = 0
KUM1 230333Z 12022KT 03/02 A2975 RMK A01 T00330022  RH  092%=      5-min Rain = 0
KUM1 230334Z 12022G27KT 03/02 A2975 RMK A01 T00330022  RH  092%=      5-min Rain = 0
KUM1 230335Z 12021KT 03/02 A2975 RMK A01 T00340022  RH  092%=      5-min Rain = 0
KUM1 230336Z 12022G27KT 03/02 A2975 RMK A01 T00340022  RH  092%=      5-min Rain = 0
KUM1 230337Z 12024KT 03/02 A2975 RMK A01 T00340022  RH  092%=      5-min Rain = 0
KUM1 230338Z 13023KT 03/02 A2975 RMK A01 T00340022  RH  092%=      5-min Rain = 0
KUM1 230339Z 13026KT 03/02 A2975 RMK A01 T00340022  RH  092%=      5-min Rain = 0
KUM1 230340Z 13025KT 03/02 A2975 RMK A01 T00340022  RH  092%=      5-min Rain = 0
KUM1 230341Z 13024KT 03/02 A2975 RMK A01 T00340022  RH  092%=      5-min Rain = 0
KUM1 230342Z 13024KT 03/02 A2975 RMK A01 T00340022  RH  092%=      5-min Rain = 0
KUM1 230343Z 13021G26KT 03/02 A2975 RMK A01 T00340022  RH  092%=      5-min Rain = 0
KUM1 230344Z 13023KT 03/02 A2975 RMK A01 T00330022  RH  092%=      5-min Rain = 0
KUM1 230345Z 13021KT 03/02 A2975 RMK A01 T00340022  RH  092%=      5-min Rain = 0
KUM1 230346Z 13022KT 03/02 A2975 RMK A01 T00340022  RH  092%=      5-min Rain = 0
KUM1 230347Z 13020KT 03/02 A2975 RMK A01 T00330022  RH  092%=      5-min Rain = 0
KUM1 230348Z 13018G23KT 03/02 A2975 RMK A01 T00340022  RH  092%=      5-min Rain = 0
KUM1 230349Z 13020KT 03/02 A2975 RMK A01 T00340022  RH  092%=      5-min Rain = 0
KUM1 230350Z 13019KT 03/02 A2975 RMK A01 T00330022  RH  093%=      5-min Rain = 0
KUM1 230351Z 13017KT 03/02 A2975 RMK A01 T00340023  RH  093%=      5-min Rain = 0
KUM1 230352Z 13018KT 03/02 A2975 RMK A01 T00340023  RH  093%=      5-min Rain = 0
KUM1 230353Z 13018KT 03/02 A2975 RMK A01 T00340023  RH  092%=      5-min Rain = 0
KUM1 230354Z 13020KT 03/02 A2975 RMK A01 T00340023  RH  092%=      5-min Rain = 0
KUM1 230355Z 13022KT 03/02 A2975 RMK A01 T00340022  RH  092%=      5-min Rain = 0
KUM1 230356Z 12023KT 03/02 A2974 RMK A01 T00330022  RH  092%=      5-min Rain = 0
KUM1 230357Z 12021KT 03/02 A2974 RMK A01 T00330023  RH  093%=      5-min Rain = 0
KUM1 230358Z 13022KT 03/02 A2974 RMK A01 T00330023  RH  093%=      5-min Rain = 0
KUM1 230359Z 13023KT 03/02 A2975 RMK A01 T00330023  RH  093%=      5-min Rain = 0
KUM1 230400Z 13023KT 03/02 A2975 RMK A01 T00330023  RH  093%=      5-min Rain = 0
KUM1 230401Z 12021KT 03/02 A2975 RMK A01 T00330024  RH  093%=      5-min Rain = 0
KUM1 230402Z 13021KT 03/02 A2975 RMK A01 T00330024  RH  094%=      5-min Rain = 0
KUM1 230403Z 13020KT 03/02 A2975 RMK A01 T00330024  RH  094%=      5-min Rain = 0
KUM1 230404Z 13020KT 03/02 A2975 RMK A01 T00330024  RH  094%=      5-min Rain = 0
KUM1 230405Z 14022KT 03/02 A2975 RMK A01 T00330024  RH  094%=      5-min Rain = 0
KUM1 230406Z 13024KT 03/02 A2976 RMK A01 T00340024  RH  093%=      5-min Rain = 0
KUM1 230407Z 13025KT 03/02 A2976 RMK A01 T00340024  RH  093%=      5-min Rain = 0
KUM1 230408Z 13023KT 03/02 A2976 RMK A01 T00330023  RH  093%=      5-min Rain = 0
KUM1 230409Z 13023KT 03/02 A2976 RMK A01 T00330023  RH  093%=      5-min Rain = 0
KUM1 230410Z 13021KT 03/02 A2976 RMK A01 T00330024  RH  093%=      5-min Rain = 0
KUM1 230411Z 13019KT 03/02 A2976 RMK A01 T00330024  RH  094%=      5-min Rain = 0
KUM1 230412Z 13019KT 03/02 A2976 RMK A01 T00330024  RH  093%=      5-min Rain = 0
KUM1 230413Z 13017G22KT 03/02 A2976 RMK A01 T00330023  RH  093%=      5-min Rain = 0
KUM1 230414Z 13017KT 03/02 A2976 RMK A01 T00330023  RH  093%=      5-min Rain = 0
KUM1 230415Z 13019KT 03/02 A2976 RMK A01 T00330023  RH  093%=      5-min Rain = 0
KUM1 230416Z 13019KT 03/02 A2976 RMK A01 T00330023  RH  093%=      5-min Rain = 0
KUM1 230417Z 14019KT 03/02 A2976 RMK A01 T00330023  RH  093%=      5-min Rain = 0
KUM1 230418Z 14022KT 03/02 A2977 RMK A01 T00340024  RH  093%=      5-min Rain = 0
KUM1 230419Z 14021KT 03/02 A2977 RMK A01 T00340023  RH  093%=      5-min Rain = 0
KUM1 230420Z 15020KT 03/02 A2977 RMK A01 T00340023  RH  093%=      5-min Rain = 0
KUM1 230421Z 15019G24KT 03/02 A2977 RMK A01 T00340023  RH  093%=      5-min Rain = 0
KUM1 230422Z 15022KT 03/02 A2978 RMK A01 T00340023  RH  093%=      5-min Rain = 0
KUM1 230423Z 15021KT 03/02 A2978 RMK A01 T00340023  RH  093%=      5-min Rain = 0
KUM1 230424Z 15021KT 03/02 A2978 RMK A01 T00340023  RH  093%=      5-min Rain = 0
KUM1 230425Z 15020KT 03/02 A2978 RMK A01 T00340024  RH  093%=      5-min Rain = 0
KUM1 230426Z 15021KT 03/02 A2978 RMK A01 T00340023  RH  093%=      5-min Rain = 0
KUM1 230427Z 15018KT 03/02 A2978 RMK A01 T00340023  RH  093%=      5-min Rain = 0
KUM1 230428Z 15022KT 03/02 A2977 RMK A01 T00340023  RH  093%=      5-min Rain = 0
KUM1 230429Z 15022KT 03/02 A2977 RMK A01 T00340023  RH  093%=      5-min Rain = 0
KUM1 230430Z 14020KT 03/02 A2977 RMK A01 T00340024  RH  093%=      5-min Rain = 0
KUM1 230431Z 14019KT 03/02 A2977 RMK A01 T00340024  RH  093%=      5-min Rain = 0
KUM1 230432Z 14017KT 03/02 A2977 RMK A01 T00340024  RH  093%=      5-min Rain = 0
KUM1 230433Z 14019KT 03/02 A2977 RMK A01 T00340024  RH  093%=      5-min Rain = 0
KUM1 230434Z 15022KT 03/02 A2977 RMK A01 T00340024  RH  093%=      5-min Rain = 0
KUM1 230435Z 14019G24KT 03/02 A2977 RMK A01 T00340024  RH  093%=      5-min Rain = 0
KUM1 230436Z 14019KT 03/02 A2977 RMK A01 T00330023  RH  093%=      5-min Rain = 0
KUM1 230437Z 14018KT 03/02 A2977 RMK A01 T00330024  RH  093%=      5-min Rain = 0
KUM1 230438Z 13019KT 03/02 A2977 RMK A01 T00340024  RH  094%=      5-min Rain = 0
KUM1 230439Z 14020KT 03/02 A2977 RMK A01 T00340024  RH  094%=      5-min Rain = 0
KUM1 230440Z 14022KT 03/02 A2977 RMK A01 T00330024  RH  094%=      5-min Rain = 0
KUM1 230441Z 14022KT 03/02 A2977 RMK A01 T00340024  RH  094%=      5-min Rain = 0
KUM1 230442Z 14020KT 03/03 A2977 RMK A01 T00340025  RH  094%=      5-min Rain = 0
KUM1 230443Z 14019KT 03/02 A2977 RMK A01 T00340024  RH  094%=      5-min Rain = 0
KUM1 230444Z 14021KT 03/02 A2977 RMK A01 T00340024  RH  093%=      5-min Rain = 0
KUM1 230445Z 14018KT 03/02 A2977 RMK A01 T00340024  RH  093%=      5-min Rain = 0
KUM1 230446Z 14018KT 03/02 A2977 RMK A01 T00340024  RH  093%=      5-min Rain = 0
KUM1 230447Z 14020KT 03/02 A2977 RMK A01 T00340024  RH  093%=      5-min Rain = 0
KUM1 230448Z 14018G23KT 03/03 A2977 RMK A01 T00340025  RH  094%=      5-min Rain = 0
KUM1 230449Z 14022KT 03/03 A2976 RMK A01 T00340025  RH  094%=      5-min Rain = 0
KUM1 230450Z 13017KT 03/03 A2976 RMK A01 T00340025  RH  094%=      5-min Rain = 0
KUM1 230451Z 13016KT 03/03 A2975 RMK A01 T00340026  RH  094%=      5-min Rain = 0
KUM1 230452Z 14015KT 03/03 A2976 RMK A01 T00340026  RH  095%=      5-min Rain = 0
KUM1 230453Z 15014KT 03/03 A2976 RMK A01 T00340026  RH  095%=      5-min Rain = 0
KUM1 230454Z 15015KT 03/03 A2976 RMK A01 T00340027  RH  095%=      5-min Rain = 0
KUM1 230455Z 14016KT 03/03 A2976 RMK A01 T00340027  RH  095%=      5-min Rain = 0
KUM1 230456Z 15015KT 03/03 A2976 RMK A01 T00340027  RH  095%=      5-min Rain = 0
KUM1 230457Z 15018KT 03/03 A2976 RMK A01 T00340028  RH  096%=      5-min Rain = 0
KUM1 230458Z 15019KT 03/03 A2976 RMK A01 T00340028  RH  096%=      5-min Rain = 0
KUM1 230459Z 14018KT 03/03 A2976 RMK A01 T00340028  RH  096%=      5-min Rain = 0
KUM1 230500Z 14017KT 03/03 A2976 RMK A01 T00340029  RH  096%=      5-min Rain = 0
KUM1 230501Z 14022KT 03/03 A2976 RMK A01 T00340029  RH  096%=      5-min Rain = 0
KUM1 230502Z 14019KT 04/03 A2975 RMK A01 T00350030  RH  097%=      5-min Rain = 0
KUM1 230503Z 12016KT 04/03 A2974 RMK A01 T00350031  RH  097%=      5-min Rain = 0
KUM1 230504Z 12014KT 04/03 A2973 RMK A01 T00360031  RH  097%=      5-min Rain = 0
KUM1 230505Z 12012KT 04/03 A2973 RMK A01 T00350030  RH  097%=      5-min Rain = 0
KUM1 230506Z 13013KT 04/03 A2973 RMK A01 T00350031  RH  097%=      5-min Rain = 0
KUM1 230507Z 13013KT 04/03 A2973 RMK A01 T00350031  RH  097%=      5-min Rain = 0
KUM1 230508Z 13014KT 04/03 A2972 RMK A01 T00360032  RH  097%=      5-min Rain = 0
KUM1 230509Z 12014KT 04/03 A2972 RMK A01 T00370033  RH  097%=      5-min Rain = 0
KUM1 230510Z 12015KT 04/03 A2972 RMK A01 T00370033  RH  097%=      5-min Rain = 0
KUM1 230511Z 13016KT 04/03 A2972 RMK A01 T00370033  RH  097%=      5-min Rain = 0
KUM1 230512Z 13016KT 04/03 A2972 RMK A01 T00370032  RH  097%=      5-min Rain = 0
KUM1 230513Z 12015G21KT 04/03 A2971 RMK A01 T00370032  RH  097%=      5-min Rain = 0
KUM1 230514Z 12012G17KT 04/03 A2971 RMK A01 T00360032  RH  097%=      5-min Rain = 0.01
KUM1 230515Z 11016KT 04/03 A297 RMK A01 T00360032  RH  097%=      5-min Rain = 0
KUM1 230516Z 12016KT 04/03 A297 RMK A01 T00360031  RH  097%=      5-min Rain = 0
KUM1 230517Z 11013KT 04/03 A297 RMK A01 T00350031  RH  097%=      5-min Rain = 0
KUM1 230518Z 12019KT 04/03 A297 RMK A01 T00360032  RH  097%=      5-min Rain = 0
KUM1 230519Z 12019KT 04/03 A297 RMK A01 T00360032  RH  097%=      5-min Rain = 0
KUM1 230520Z 12018KT 04/03 A2971 RMK A01 T00350031  RH  097%=      5-min Rain = 0
KUM1 230521Z 12018KT 04/03 A2971 RMK A01 T00350031  RH  098%=      5-min Rain = 0
KUM1 230522Z 12017KT 04/03 A2971 RMK A01 T00350031  RH  098%=      5-min Rain = 0
KUM1 230523Z 12019KT 04/03 A2971 RMK A01 T00350032  RH  098%=      5-min Rain = 0
KUM1 230524Z 12020KT 04/03 A2971 RMK A01 T00350032  RH  098%=      5-min Rain = 0
KUM1 230525Z 12017KT 04/03 A2971 RMK A01 T00350032  RH  098%=      5-min Rain = 0
KUM1 230526Z 12018KT 04/03 A2971 RMK A01 T00350032  RH  098%=      5-min Rain = 0
KUM1 230527Z 13021KT 04/03 A2971 RMK A01 T00350032  RH  098%=      5-min Rain = 0
KUM1 230528Z 13020KT 04/03 A2971 RMK A01 T00350032  RH  098%=      5-min Rain = 0
KUM1 230529Z 12019KT 04/03 A2971 RMK A01 T00350032  RH  098%=      5-min Rain = 0
KUM1 230530Z 13021KT 04/03 A2971 RMK A01 T00350032  RH  098%=      5-min Rain = 0
KUM1 230531Z 13021KT 04/03 A2972 RMK A01 T00350032  RH  098%=      5-min Rain = 0
KUM1 230532Z 13017KT 04/03 A2972 RMK A01 T00350032  RH  098%=      5-min Rain = 0
KUM1 230533Z 13019KT 04/03 A2972 RMK A01 T00350033  RH  098%=      5-min Rain = 0
KUM1 230534Z 14018G24KT 04/03 A2973 RMK A01 T00360033  RH  098%=      5-min Rain = 0
KUM1 230535Z 14018KT 04/03 A2973 RMK A01 T00350033  RH  098%=      5-min Rain = 0
KUM1 230536Z 14019KT 04/03 A2972 RMK A01 T00360033  RH  098%=      5-min Rain = 0
KUM1 230537Z 14016KT 04/03 A2972 RMK A01 T00360033  RH  098%=      5-min Rain = 0
KUM1 230538Z 13019KT 04/03 A2972 RMK A01 T00360033  RH  098%=      5-min Rain = 0
KUM1 230539Z 13021KT 04/03 A2971 RMK A01 T00360033  RH  098%=      5-min Rain = 0
KUM1 230540Z 13021KT 04/03 A2972 RMK A01 T00360033  RH  098%=      5-min Rain = 0
KUM1 230541Z 13023KT 04/03 A2972 RMK A01 T00360033  RH  098%=      5-min Rain = 0
KUM1 230542Z 14022KT 04/03 A2972 RMK A01 T00360034  RH  098%=      5-min Rain = 0
KUM1 230543Z 14019KT 04/03 A2972 RMK A01 T00360034  RH  098%=      5-min Rain = 0
KUM1 230544Z 14018KT 04/03 A2972 RMK A01 T00360034  RH  098%=      5-min Rain = 0
KUM1 230545Z 13020KT 04/04 A2972 RMK A01 T00370035  RH  099%=      5-min Rain = 0
KUM1 230546Z 13021KT 04/04 A2972 RMK A01 T00370035  RH  099%=      5-min Rain = 0.01
KUM1 230547Z 13022KT 04/04 A2972 RMK A01 T00370035  RH  099%=      5-min Rain = 0
KUM1 230548Z 13022KT 04/04 A2972 RMK A01 T00370035  RH  099%=      5-min Rain = 0
KUM1 230549Z 13018KT 04/04 A2971 RMK A01 T00370035  RH  099%=      5-min Rain = 0
KUM1 230550Z 13016KT 04/04 A2971 RMK A01 T00370035  RH  099%=      5-min Rain = 0
KUM1 230551Z 13016KT 04/04 A2971 RMK A01 T00370035  RH  099%=      5-min Rain = 0
KUM1 230552Z 12015KT 04/04 A2971 RMK A01 T00370035  RH  099%=      5-min Rain = 0
KUM1 230553Z 12017KT 04/04 A2971 RMK A01 T00370035  RH  099%=      5-min Rain = 0
KUM1 230554Z 13018KT 04/04 A2971 RMK A01 T00370035  RH  099%=      5-min Rain = 0
KUM1 230555Z 13014KT 04/04 A2971 RMK A01 T00370035  RH  099%=      5-min Rain = 0
KUM1 230556Z 13017G22KT 04/04 A2971 RMK A01 T00370036  RH  099%=      5-min Rain = 0
KUM1 230557Z 13019KT 04/04 A2971 RMK A01 T00370035  RH  099%=      5-min Rain = 0
KUM1 230558Z 13018KT 04/04 A2971 RMK A01 T00370035  RH  099%=      5-min Rain = 0
KUM1 230559Z 13017KT 04/04 A2971 RMK A01 T00370035  RH  099%=      5-min Rain = 0

Page generated in 0.1968 seconds.